Check out our new PWSWeather beta!
PWSweather.com
Personal Weather Stations
Station Observations
98619
Glenwood, WA 98619

Glenwood, WA 98619

Lat: 46.016, Lon: -121.275

Elevation: 1885

Station Type: Davis Vantage Pro2

Latest ConditionsUpdated 10:39:15 AM PST Monday, Feb 24, 2020
Currently Today's Max Today's Min Today's Average
Temperature 42.4°F5.8°C 42.5°F5.8°C 30.5°F-0.8°C 35.3°F1.8°C
Dew Point 29.5°F-1.4°C 30.5°F-0.8°C 24.7°F-4.1°C 27.8°F-2.3°C
Winds 7.0 mph SW11.3 kmh SW 28.0 mph -45.1 kmh - - 7.7 mph 12.4 kmh
Wind Gusts 8.0 mph12.9 kmh 39.0 mph62.8 kmh - -
Humidity 60% 81% 54% 74%
Pressure 30.51 in1033.2 mb 30.52 in1033.5 mb 30.35 in1027.8 mb -
Hour Temp Dew Point Humidity Winds Wind Gusts Pressure Precip Precip Rate Daily Precip Total
10:39 AM 42.4°F5.8°C 29.5°F-1.4°C 60% 7.0 mph SW11.3 kmh SW 8.0 mph12.9 kmh 30.51 in1033.2 mb 0.00 in0.0 mm 0.00 in0.0 mm 0.00 in0.0 mm
10:38 AM 42.1°F5.6°C 28.0°F-2.2°C 57% 8.0 mph S12.9 kmh S 8.0 mph12.9 kmh 30.51 in1033.2 mb 0.00 in0.0 mm 0.00 in0.0 mm 0.00 in0.0 mm
10:37 AM 42.2°F5.7°C 27.6°F-2.4°C 56% 4.0 mph S6.4 kmh S 7.0 mph11.3 kmh 30.51 in1033.2 mb 0.00 in0.0 mm 0.00 in0.0 mm 0.00 in0.0 mm
10:36 AM 42.3°F5.7°C 27.7°F-2.4°C 56% 1.0 mph SSE1.6 kmh SSE 7.0 mph11.3 kmh 30.51 in1033.2 mb 0.00 in0.0 mm 0.00 in0.0 mm 0.00 in0.0 mm
10:35 AM 42.5°F5.8°C 28.8°F-1.8°C 58% 2.0 mph S3.2 kmh S 7.0 mph11.3 kmh 30.52 in1033.5 mb 0.00 in0.0 mm 0.00 in0.0 mm 0.00 in0.0 mm
10:34 AM 42.4°F5.8°C 28.3°F-2.1°C 57% Calm Calm 7.0 mph11.3 kmh 30.52 in1033.5 mb 0.00 in0.0 mm 0.00 in0.0 mm 0.00 in0.0 mm
10:33 AM 42.3°F5.7°C 26.9°F-2.8°C 54% 3.0 mph S4.8 kmh S 3.0 mph4.8 kmh 30.52 in1033.5 mb 0.00 in0.0 mm 0.00 in0.0 mm 0.00 in0.0 mm
10:32 AM 42.3°F5.7°C 27.7°F-2.4°C 56% 2.0 mph S3.2 kmh S 2.0 mph3.2 kmh 30.52 in1033.5 mb 0.00 in0.0 mm 0.00 in0.0 mm 0.00 in0.0 mm
10:31 AM 42.2°F5.7°C 28.1°F-2.2°C 57% Calm Calm -- 30.52 in1033.5 mb 0.00 in0.0 mm 0.00 in0.0 mm 0.00 in0.0 mm
10:30 AM 41.9°F5.5°C 28.2°F-2.1°C 58% Calm Calm -- 30.51 in1033.2 mb 0.00 in0.0 mm 0.00 in0.0 mm 0.00 in0.0 mm
10:29 AM 42.0°F5.6°C 27.0°F-2.8°C 55% Calm Calm 6.0 mph9.7 kmh 30.52 in1033.5 mb 0.00 in0.0 mm 0.00 in0.0 mm 0.00 in0.0 mm
10:28 AM 42.1°F5.6°C 28.4°F-2.0°C 58% Calm Calm 6.0 mph9.7 kmh 30.52 in1033.5 mb 0.00 in0.0 mm 0.00 in0.0 mm 0.00 in0.0 mm
10:27 AM 42.3°F5.7°C 28.2°F-2.1°C 57% 4.0 mph S6.4 kmh S 6.0 mph9.7 kmh 30.51 in1033.2 mb 0.00 in0.0 mm 0.00 in0.0 mm 0.00 in0.0 mm
10:26 AM 42.4°F5.8°C 28.7°F-1.8°C 58% 3.0 mph SSW4.8 kmh SSW 6.0 mph9.7 kmh 30.51 in1033.2 mb 0.00 in0.0 mm 0.00 in0.0 mm 0.00 in0.0 mm
10:25 AM 42.4°F5.8°C 29.9°F-1.2°C 61% Calm Calm 5.0 mph8.0 kmh 30.51 in1033.2 mb 0.00 in0.0 mm 0.00 in0.0 mm 0.00 in0.0 mm
10:24 AM 42.2°F5.7°C 30.1°F-1.1°C 62% Calm Calm 5.0 mph8.0 kmh 30.51 in1033.2 mb 0.00 in0.0 mm 0.00 in0.0 mm 0.00 in0.0 mm
10:23 AM 42.0°F5.6°C 29.5°F-1.4°C 61% Calm Calm 5.0 mph8.0 kmh 30.52 in1033.5 mb 0.00 in0.0 mm 0.00 in0.0 mm 0.00 in0.0 mm
10:22 AM 41.7°F5.4°C 29.7°F-1.3°C 62% Calm Calm 5.0 mph8.0 kmh 30.52 in1033.5 mb 0.00 in0.0 mm 0.00 in0.0 mm 0.00 in0.0 mm
10:21 AM 41.5°F5.3°C 29.1°F-1.6°C 61% Calm Calm 5.0 mph8.0 kmh 30.51 in1033.2 mb 0.00 in0.0 mm 0.00 in0.0 mm 0.00 in0.0 mm
10:20 AM 41.4°F5.2°C 29.0°F-1.7°C 61% 1.0 mph N1.6 kmh N 5.0 mph8.0 kmh 30.51 in1033.2 mb 0.00 in0.0 mm 0.00 in0.0 mm 0.00 in0.0 mm
10:19 AM 41.4°F5.2°C 28.6°F-1.9°C 60% Calm Calm 5.0 mph8.0 kmh 30.51 in1033.2 mb 0.00 in0.0 mm 0.00 in0.0 mm 0.00 in0.0 mm
10:18 AM 41.4°F5.2°C 28.6°F-1.9°C 60% 2.0 mph N3.2 kmh N 5.0 mph8.0 kmh 30.51 in1033.2 mb 0.00 in0.0 mm 0.00 in0.0 mm 0.00 in0.0 mm
10:17 AM 41.5°F5.3°C 28.7°F-1.8°C 60% 2.0 mph N3.2 kmh N 5.0 mph8.0 kmh 30.51 in1033.2 mb 0.00 in0.0 mm 0.00 in0.0 mm 0.00 in0.0 mm
10:16 AM 41.6°F5.3°C 29.6°F-1.3°C 62% 2.0 mph N3.2 kmh N 5.0 mph8.0 kmh 30.51 in1033.2 mb 0.00 in0.0 mm 0.00 in0.0 mm 0.00 in0.0 mm
10:15 AM 41.6°F5.3°C 30.0°F-1.1°C 63% 2.0 mph N3.2 kmh N 6.0 mph9.7 kmh 30.51 in1033.2 mb 0.00 in0.0 mm 0.00 in0.0 mm 0.00 in0.0 mm
10:14 AM 41.5°F5.3°C 29.9°F-1.2°C 63% 3.0 mph N4.8 kmh N 6.0 mph9.7 kmh 30.52 in1033.5 mb 0.00 in0.0 mm 0.00 in0.0 mm 0.00 in0.0 mm
10:13 AM 41.4°F5.2°C 30.1°F-1.1°C 64% 2.0 mph NW3.2 kmh NW 6.0 mph9.7 kmh 30.52 in1033.5 mb 0.00 in0.0 mm 0.00 in0.0 mm 0.00 in0.0 mm
10:12 AM 41.3°F5.2°C 29.7°F-1.3°C 63% 1.0 mph NW1.6 kmh NW 6.0 mph9.7 kmh 30.51 in1033.2 mb 0.00 in0.0 mm 0.00 in0.0 mm 0.00 in0.0 mm
10:11 AM 41.1°F5.1°C 29.9°F-1.2°C 64% 4.0 mph NW6.4 kmh NW 6.0 mph9.7 kmh 30.51 in1033.2 mb 0.00 in0.0 mm 0.00 in0.0 mm 0.00 in0.0 mm
10:10 AM 41.0°F5.0°C 28.2°F-2.1°C 60% 2.0 mph SW3.2 kmh SW 6.0 mph9.7 kmh 30.51 in1033.2 mb 0.00 in0.0 mm 0.00 in0.0 mm 0.00 in0.0 mm
10:09 AM 41.2°F5.1°C 28.8°F-1.8°C 61% Calm Calm 6.0 mph9.7 kmh 30.51 in1033.2 mb 0.00 in0.0 mm 0.00 in0.0 mm 0.00 in0.0 mm
10:08 AM 41.3°F5.2°C 28.9°F-1.7°C 61% Calm Calm 6.0 mph9.7 kmh 30.51 in1033.2 mb 0.00 in0.0 mm 0.00 in0.0 mm 0.00 in0.0 mm
10:07 AM 41.5°F5.3°C 28.7°F-1.8°C 60% 3.0 mph SSW4.8 kmh SSW 6.0 mph9.7 kmh 30.51 in1033.2 mb 0.00 in0.0 mm 0.00 in0.0 mm 0.00 in0.0 mm
10:06 AM 41.6°F5.3°C 29.6°F-1.3°C 62% Calm Calm 6.0 mph9.7 kmh 30.51 in1033.2 mb 0.00 in0.0 mm 0.00 in0.0 mm 0.00 in0.0 mm
10:05 AM 41.4°F5.2°C 29.8°F-1.2°C 63% 2.0 mph SSW3.2 kmh SSW 7.0 mph11.3 kmh 30.51 in1033.2 mb 0.00 in0.0 mm 0.00 in0.0 mm 0.00 in0.0 mm
10:04 AM 41.3°F5.2°C 30.4°F-0.9°C 65% 4.0 mph SW6.4 kmh SW 7.0 mph11.3 kmh 30.50 in1032.8 mb 0.00 in0.0 mm 0.00 in0.0 mm 0.00 in0.0 mm
10:03 AM 41.0°F5.0°C 30.5°F-0.8°C 66% 1.0 mph WNW1.6 kmh WNW 7.0 mph11.3 kmh 30.50 in1032.8 mb 0.00 in0.0 mm 0.00 in0.0 mm 0.00 in0.0 mm
10:02 AM 40.9°F4.9°C 30.4°F-0.9°C 66% 3.0 mph WNW4.8 kmh WNW 7.0 mph11.3 kmh 30.50 in1032.8 mb 0.00 in0.0 mm 0.00 in0.0 mm 0.00 in0.0 mm
10:01 AM 40.7°F4.8°C 30.2°F-1.0°C 66% 3.0 mph WNW4.8 kmh WNW 7.0 mph11.3 kmh 30.50 in1032.8 mb 0.00 in0.0 mm 0.00 in0.0 mm 0.00 in0.0 mm
10:00 AM 40.6°F4.8°C 29.8°F-1.2°C 65% 6.0 mph NW9.7 kmh NW 7.0 mph11.3 kmh 30.50 in1032.8 mb 0.00 in0.0 mm 0.00 in0.0 mm 0.00 in0.0 mm
09:59 AM 40.7°F4.8°C 29.9°F-1.2°C 65% 2.0 mph SW3.2 kmh SW 7.0 mph11.3 kmh 30.50 in1032.8 mb 0.00 in0.0 mm 0.00 in0.0 mm 0.00 in0.0 mm
09:58 AM 40.7°F4.8°C 29.1°F-1.6°C 63% 1.0 mph SW1.6 kmh SW 7.0 mph11.3 kmh 30.50 in1032.8 mb 0.00 in0.0 mm 0.00 in0.0 mm 0.00 in0.0 mm
09:57 AM 40.8°F4.9°C 30.0°F-1.1°C 65% 3.0 mph SW4.8 kmh SW 7.0 mph11.3 kmh 30.50 in1032.8 mb 0.00 in0.0 mm 0.00 in0.0 mm 0.00 in0.0 mm
09:56 AM 40.8°F4.9°C 29.6°F-1.3°C 64% 2.0 mph SW3.2 kmh SW 7.0 mph11.3 kmh 30.50 in1032.8 mb 0.00 in0.0 mm 0.00 in0.0 mm 0.00 in0.0 mm
09:55 AM 40.7°F4.8°C 29.5°F-1.4°C 64% 3.0 mph SW4.8 kmh SW 7.0 mph11.3 kmh 30.50 in1032.8 mb 0.00 in0.0 mm 0.00 in0.0 mm 0.00 in0.0 mm
09:54 AM 40.6°F4.8°C 29.0°F-1.7°C 63% Calm Calm 7.0 mph11.3 kmh 30.50 in1032.8 mb 0.00 in0.0 mm 0.00 in0.0 mm 0.00 in0.0 mm
09:53 AM 40.5°F4.7°C 28.9°F-1.7°C 63% 2.0 mph SSW3.2 kmh SSW 7.0 mph11.3 kmh 30.50 in1032.8 mb 0.00 in0.0 mm 0.00 in0.0 mm 0.00 in0.0 mm
09:52 AM 40.5°F4.7°C 29.7°F-1.3°C 65% 1.0 mph SW1.6 kmh SW 7.0 mph11.3 kmh 30.50 in1032.8 mb 0.00 in0.0 mm 0.00 in0.0 mm 0.00 in0.0 mm
09:51 AM 40.4°F4.7°C 28.4°F-2.0°C 62% Calm Calm 7.0 mph11.3 kmh 30.50 in1032.8 mb 0.00 in0.0 mm 0.00 in0.0 mm 0.00 in0.0 mm
09:50 AM 40.4°F4.7°C 28.4°F-2.0°C 62% 3.0 mph SW4.8 kmh SW 7.0 mph11.3 kmh 30.50 in1032.8 mb 0.00 in0.0 mm 0.00 in0.0 mm 0.00 in0.0 mm
09:49 AM 40.3°F4.6°C 29.1°F-1.6°C 64% 2.0 mph SW3.2 kmh SW 7.0 mph11.3 kmh 30.50 in1032.8 mb 0.00 in0.0 mm 0.00 in0.0 mm 0.00 in0.0 mm
09:48 AM 40.3°F4.6°C 27.9°F-2.3°C 61% 4.0 mph SW6.4 kmh SW 7.0 mph11.3 kmh 30.50 in1032.8 mb 0.00 in0.0 mm 0.00 in0.0 mm 0.00 in0.0 mm
09:47 AM 40.4°F4.7°C 28.0°F-2.2°C 61% 3.0 mph SSW4.8 kmh SSW 7.0 mph11.3 kmh 30.50 in1032.8 mb 0.00 in0.0 mm 0.00 in0.0 mm 0.00 in0.0 mm
09:46 AM 40.4°F4.7°C 29.2°F-1.6°C 64% 3.0 mph SSW4.8 kmh SSW 7.0 mph11.3 kmh 30.50 in1032.8 mb 0.00 in0.0 mm 0.00 in0.0 mm 0.00 in0.0 mm
09:45 AM 40.2°F4.6°C 30.1°F-1.1°C 67% 2.0 mph S3.2 kmh S 6.0 mph9.7 kmh 30.50 in1032.8 mb 0.00 in0.0 mm 0.00 in0.0 mm 0.00 in0.0 mm
09:44 AM 39.9°F4.4°C 29.1°F-1.6°C 65% Calm Calm 6.0 mph9.7 kmh 30.50 in1032.8 mb 0.00 in0.0 mm 0.00 in0.0 mm 0.00 in0.0 mm
09:43 AM 39.7°F4.3°C 28.2°F-2.1°C 63% 2.0 mph SSE3.2 kmh SSE 6.0 mph9.7 kmh 30.50 in1032.8 mb 0.00 in0.0 mm 0.00 in0.0 mm 0.00 in0.0 mm
09:42 AM 39.6°F4.2°C 28.8°F-1.8°C 65% 1.0 mph NW1.6 kmh NW 6.0 mph9.7 kmh 30.50 in1032.8 mb 0.00 in0.0 mm 0.00 in0.0 mm 0.00 in0.0 mm
09:41 AM 39.4°F4.1°C 29.0°F-1.7°C 66% Calm Calm 6.0 mph9.7 kmh 30.50 in1032.8 mb 0.00 in0.0 mm 0.00 in0.0 mm 0.00 in0.0 mm
09:40 AM 39.3°F4.1°C 29.3°F-1.5°C 67% Calm Calm 6.0 mph9.7 kmh 30.50 in1032.8 mb 0.00 in0.0 mm 0.00 in0.0 mm 0.00 in0.0 mm
09:39 AM 39.2°F4.0°C 29.2°F-1.6°C 67% 3.0 mph NW4.8 kmh NW 6.0 mph9.7 kmh 30.50 in1032.8 mb 0.00 in0.0 mm 0.00 in0.0 mm 0.00 in0.0 mm
09:38 AM 39.1°F3.9°C 29.8°F-1.2°C 69% 5.0 mph WNW8.0 kmh WNW 5.0 mph8.0 kmh 30.50 in1032.8 mb 0.00 in0.0 mm 0.00 in0.0 mm 0.00 in0.0 mm
09:37 AM 38.9°F3.8°C 28.9°F-1.7°C 67% 4.0 mph S6.4 kmh S 5.0 mph8.0 kmh 30.50 in1032.8 mb 0.00 in0.0 mm 0.00 in0.0 mm 0.00 in0.0 mm
09:36 AM 38.9°F3.8°C 28.5°F-1.9°C 66% Calm Calm 2.0 mph3.2 kmh 30.50 in1032.8 mb 0.00 in0.0 mm 0.00 in0.0 mm 0.00 in0.0 mm
09:35 AM 39.0°F3.9°C 28.6°F-1.9°C 66% Calm Calm 2.0 mph3.2 kmh 30.50 in1032.8 mb 0.00 in0.0 mm 0.00 in0.0 mm 0.00 in0.0 mm
09:34 AM 39.0°F3.9°C 28.6°F-1.9°C 66% 2.0 mph NW3.2 kmh NW 2.0 mph3.2 kmh 30.50 in1032.8 mb 0.00 in0.0 mm 0.00 in0.0 mm 0.00 in0.0 mm
09:33 AM 38.9°F3.8°C 28.9°F-1.7°C 67% Calm Calm 7.0 mph11.3 kmh 30.50 in1032.8 mb 0.00 in0.0 mm 0.00 in0.0 mm 0.00 in0.0 mm
09:32 AM 38.9°F3.8°C 28.9°F-1.7°C 67% 1.0 mph NW1.6 kmh NW 7.0 mph11.3 kmh 30.50 in1032.8 mb 0.00 in0.0 mm 0.00 in0.0 mm 0.00 in0.0 mm
09:31 AM 38.9°F3.8°C 28.9°F-1.7°C 67% 1.0 mph NW1.6 kmh NW 7.0 mph11.3 kmh 30.50 in1032.8 mb 0.00 in0.0 mm 0.00 in0.0 mm 0.00 in0.0 mm
09:30 AM 38.8°F3.8°C 28.8°F-1.8°C 67% Calm Calm 7.0 mph11.3 kmh 30.50 in1032.8 mb 0.00 in0.0 mm 0.00 in0.0 mm 0.00 in0.0 mm
09:29 AM 38.8°F3.8°C 28.8°F-1.8°C 67% Calm Calm 7.0 mph11.3 kmh 30.50 in1032.8 mb 0.00 in0.0 mm 0.00 in0.0 mm 0.00 in0.0 mm
09:28 AM 38.7°F3.7°C 28.7°F-1.8°C 67% Calm Calm 7.0 mph11.3 kmh 30.50 in1032.8 mb 0.00 in0.0 mm 0.00 in0.0 mm 0.00 in0.0 mm
09:27 AM 38.7°F3.7°C 28.7°F-1.8°C 67% Calm Calm 7.0 mph11.3 kmh 30.50 in1032.8 mb 0.00 in0.0 mm 0.00 in0.0 mm 0.00 in0.0 mm
09:26 AM 38.6°F3.7°C 29.3°F-1.5°C 69% 2.0 mph NW3.2 kmh NW 7.0 mph11.3 kmh 30.50 in1032.8 mb 0.00 in0.0 mm 0.00 in0.0 mm 0.00 in0.0 mm
09:25 AM 38.4°F3.6°C 28.8°F-1.8°C 68% Calm Calm 7.0 mph11.3 kmh 30.50 in1032.8 mb 0.00 in0.0 mm 0.00 in0.0 mm 0.00 in0.0 mm
09:24 AM 38.2°F3.4°C 27.9°F-2.3°C 66% 1.0 mph N1.6 kmh N 7.0 mph11.3 kmh 30.50 in1032.8 mb 0.00 in0.0 mm 0.00 in0.0 mm 0.00 in0.0 mm
09:23 AM 38.2°F3.4°C 28.2°F-2.1°C 67% 2.0 mph N3.2 kmh N 7.0 mph11.3 kmh 30.50 in1032.8 mb 0.00 in0.0 mm 0.00 in0.0 mm 0.00 in0.0 mm
09:22 AM 38.0°F3.3°C 28.7°F-1.8°C 69% 7.0 mph N11.3 kmh N 7.0 mph11.3 kmh 30.50 in1032.8 mb 0.00 in0.0 mm 0.00 in0.0 mm 0.00 in0.0 mm
09:21 AM 37.9°F3.3°C 29.0°F-1.7°C 70% 4.0 mph 6.4 kmh 7.0 mph11.3 kmh 30.50 in1032.8 mb 0.00 in0.0 mm 0.00 in0.0 mm 0.00 in0.0 mm
09:20 AM 37.7°F3.2°C 28.8°F-1.8°C 70% 7.0 mph N11.3 kmh N 7.0 mph11.3 kmh 30.50 in1032.8 mb 0.00 in0.0 mm 0.00 in0.0 mm 0.00 in0.0 mm
09:19 AM 37.6°F3.1°C 28.7°F-1.8°C 70% 5.0 mph N8.0 kmh N 5.0 mph8.0 kmh 30.50 in1032.8 mb 0.00 in0.0 mm 0.00 in0.0 mm 0.00 in0.0 mm
09:18 AM 37.6°F3.1°C 29.1°F-1.6°C 71% 2.0 mph NW3.2 kmh NW 5.0 mph8.0 kmh 30.50 in1032.8 mb 0.00 in0.0 mm 0.00 in0.0 mm 0.00 in0.0 mm
09:17 AM 37.6°F3.1°C 29.4°F-1.4°C 72% 4.0 mph NW6.4 kmh NW 5.0 mph8.0 kmh 30.51 in1033.2 mb 0.00 in0.0 mm 0.00 in0.0 mm 0.00 in0.0 mm
09:16 AM 37.5°F3.1°C 27.9°F-2.3°C 68% 5.0 mph NW8.0 kmh NW 5.0 mph8.0 kmh 30.50 in1032.8 mb 0.00 in0.0 mm 0.00 in0.0 mm 0.00 in0.0 mm
09:15 AM 37.6°F3.1°C 28.4°F-2.0°C 69% Calm Calm 1.0 mph1.6 kmh 30.50 in1032.8 mb 0.00 in0.0 mm 0.00 in0.0 mm 0.00 in0.0 mm
09:14 AM 37.6°F3.1°C 28.0°F-2.2°C 68% Calm Calm 4.0 mph6.4 kmh 30.50 in1032.8 mb 0.00 in0.0 mm 0.00 in0.0 mm 0.00 in0.0 mm
09:13 AM 37.7°F3.2°C 29.2°F-1.6°C 71% Calm Calm 4.0 mph6.4 kmh 30.50 in1032.8 mb 0.00 in0.0 mm 0.00 in0.0 mm 0.00 in0.0 mm
09:12 AM 37.7°F3.2°C 29.2°F-1.6°C 71% 3.0 mph W4.8 kmh W 3.0 mph4.8 kmh 30.50 in1032.8 mb 0.00 in0.0 mm 0.00 in0.0 mm 0.00 in0.0 mm
09:11 AM 37.6°F3.1°C 29.1°F-1.6°C 71% Calm Calm -- 30.50 in1032.8 mb 0.00 in0.0 mm 0.00 in0.0 mm 0.00 in0.0 mm
09:10 AM 37.5°F3.1°C 28.6°F-1.9°C 70% Calm Calm -- 30.50 in1032.8 mb 0.00 in0.0 mm 0.00 in0.0 mm 0.00 in0.0 mm
09:09 AM 37.6°F3.1°C 29.1°F-1.6°C 71% Calm Calm -- 30.50 in1032.8 mb 0.00 in0.0 mm 0.00 in0.0 mm 0.00 in0.0 mm
09:08 AM 37.6°F3.1°C 28.7°F-1.8°C 70% Calm Calm -- 30.50 in1032.8 mb 0.00 in0.0 mm 0.00 in0.0 mm 0.00 in0.0 mm
09:07 AM 37.5°F3.1°C 29.0°F-1.7°C 71% Calm Calm 1.0 mph1.6 kmh 30.50 in1032.8 mb 0.00 in0.0 mm 0.00 in0.0 mm 0.00 in0.0 mm
09:06 AM 37.4°F3.0°C 28.9°F-1.7°C 71% Calm Calm 1.0 mph1.6 kmh 30.50 in1032.8 mb 0.00 in0.0 mm 0.00 in0.0 mm 0.00 in0.0 mm
09:05 AM 37.2°F2.9°C 28.7°F-1.8°C 71% Calm Calm -- 30.50 in1032.8 mb 0.00 in0.0 mm 0.00 in0.0 mm 0.00 in0.0 mm
09:04 AM 37.2°F2.9°C 28.0°F-2.2°C 69% Calm Calm -- 30.50 in1032.8 mb 0.00 in0.0 mm 0.00 in0.0 mm 0.00 in0.0 mm
09:03 AM 37.4°F3.0°C 28.2°F-2.1°C 69% Calm Calm 7.0 mph11.3 kmh 30.50 in1032.8 mb 0.00 in0.0 mm 0.00 in0.0 mm 0.00 in0.0 mm
09:02 AM 37.5°F3.1°C 29.0°F-1.7°C 71% 2.0 mph N3.2 kmh N 7.0 mph11.3 kmh 30.50 in1032.8 mb 0.00 in0.0 mm 0.00 in0.0 mm 0.00 in0.0 mm
09:01 AM 37.4°F3.0°C 28.9°F-1.7°C 71% Calm Calm 7.0 mph11.3 kmh 30.50 in1032.8 mb 0.00 in0.0 mm 0.00 in0.0 mm 0.00 in0.0 mm
09:00 AM 37.4°F3.0°C 29.2°F-1.6°C 72% 1.0 mph N1.6 kmh N 7.0 mph11.3 kmh 30.50 in1032.8 mb 0.00 in0.0 mm 0.00 in0.0 mm 0.00 in0.0 mm
08:59 AM 37.4°F3.0°C 28.9°F-1.7°C 71% 3.0 mph N4.8 kmh N 7.0 mph11.3 kmh 30.50 in1032.8 mb 0.00 in0.0 mm 0.00 in0.0 mm 0.00 in0.0 mm
08:58 AM 37.4°F3.0°C 29.2°F-1.6°C 72% 2.0 mph N3.2 kmh N 7.0 mph11.3 kmh 30.50 in1032.8 mb 0.00 in0.0 mm 0.00 in0.0 mm 0.00 in0.0 mm
08:57 AM 37.3°F2.9°C 29.1°F-1.6°C 72% 1.0 mph N1.6 kmh N 7.0 mph11.3 kmh 30.50 in1032.8 mb 0.00 in0.0 mm 0.00 in0.0 mm 0.00 in0.0 mm
08:56 AM 37.3°F2.9°C 29.1°F-1.6°C 72% 2.0 mph N3.2 kmh N 7.0 mph11.3 kmh 30.50 in1032.8 mb 0.00 in0.0 mm 0.00 in0.0 mm 0.00 in0.0 mm
08:55 AM 37.4°F3.0°C 29.2°F-1.6°C 72% 2.0 mph N3.2 kmh N 7.0 mph11.3 kmh 30.50 in1032.8 mb 0.00 in0.0 mm 0.00 in0.0 mm 0.00 in0.0 mm
08:54 AM 37.4°F3.0°C 29.2°F-1.6°C 72% 3.0 mph N4.8 kmh N 7.0 mph11.3 kmh 30.50 in1032.8 mb 0.00 in0.0 mm 0.00 in0.0 mm 0.00 in0.0 mm
08:53 AM 37.3°F2.9°C 29.1°F-1.6°C 72% Calm Calm 7.0 mph11.3 kmh 30.50 in1032.8 mb 0.00 in0.0 mm 0.00 in0.0 mm 0.00 in0.0 mm
08:52 AM 37.3°F2.9°C 29.1°F-1.6°C 72% 1.0 mph NNE1.6 kmh NNE 7.0 mph11.3 kmh 30.50 in1032.8 mb 0.00 in0.0 mm 0.00 in0.0 mm 0.00 in0.0 mm
08:51 AM 37.3°F2.9°C 29.1°F-1.6°C 72% 1.0 mph NNE1.6 kmh NNE 7.0 mph11.3 kmh 30.50 in1032.8 mb 0.00 in0.0 mm 0.00 in0.0 mm 0.00 in0.0 mm
08:50 AM 37.1°F2.8°C 28.6°F-1.9°C 71% 1.0 mph NNE1.6 kmh NNE 7.0 mph11.3 kmh 30.49 in1032.5 mb 0.00 in0.0 mm 0.00 in0.0 mm 0.00 in0.0 mm
08:49 AM 37.0°F2.8°C 27.8°F-2.3°C 69% Calm Calm 7.0 mph11.3 kmh 30.49 in1032.5 mb 0.00 in0.0 mm 0.00 in0.0 mm 0.00 in0.0 mm
08:48 AM 37.1°F2.8°C 28.2°F-2.1°C 70% Calm Calm 7.0 mph11.3 kmh 30.49 in1032.5 mb 0.00 in0.0 mm 0.00 in0.0 mm 0.00 in0.0 mm
08:47 AM 37.1°F2.8°C 28.2°F-2.1°C 70% 3.0 mph NNE4.8 kmh NNE 7.0 mph11.3 kmh 30.50 in1032.8 mb 0.00 in0.0 mm 0.00 in0.0 mm 0.00 in0.0 mm
08:46 AM 37.0°F2.8°C 28.5°F-1.9°C 71% 3.0 mph NW4.8 kmh NW 5.0 mph8.0 kmh 30.50 in1032.8 mb 0.00 in0.0 mm 0.00 in0.0 mm 0.00 in0.0 mm
08:45 AM 37.0°F2.8°C 28.8°F-1.8°C 72% 3.0 mph NW4.8 kmh NW 5.0 mph8.0 kmh 30.49 in1032.5 mb 0.00 in0.0 mm 0.00 in0.0 mm 0.00 in0.0 mm
08:44 AM 37.0°F2.8°C 29.2°F-1.6°C 73% 1.0 mph NW1.6 kmh NW 4.0 mph6.4 kmh 30.49 in1032.5 mb 0.00 in0.0 mm 0.00 in0.0 mm 0.00 in0.0 mm
08:43 AM 37.0°F2.8°C 29.5°F-1.4°C 74% 3.0 mph W4.8 kmh W 4.0 mph6.4 kmh 30.49 in1032.5 mb 0.00 in0.0 mm 0.00 in0.0 mm 0.00 in0.0 mm
08:42 AM 36.7°F2.6°C 29.2°F-1.6°C 74% Calm Calm 4.0 mph6.4 kmh 30.49 in1032.5 mb 0.00 in0.0 mm 0.00 in0.0 mm 0.00 in0.0 mm
08:41 AM 36.5°F2.5°C 28.3°F-2.1°C 72% Calm Calm 4.0 mph6.4 kmh 30.49 in1032.5 mb 0.00 in0.0 mm 0.00 in0.0 mm 0.00 in0.0 mm
08:40 AM 36.4°F2.4°C 28.6°F-1.9°C 73% 1.0 mph WSW1.6 kmh WSW 4.0 mph6.4 kmh 30.49 in1032.5 mb 0.00 in0.0 mm 0.00 in0.0 mm 0.00 in0.0 mm
08:39 AM 36.4°F2.4°C 28.6°F-1.9°C 73% 1.0 mph WSW1.6 kmh WSW 4.0 mph6.4 kmh 30.49 in1032.5 mb 0.00 in0.0 mm 0.00 in0.0 mm 0.00 in0.0 mm
08:38 AM 36.2°F2.3°C 28.7°F-1.8°C 74% 3.0 mph WNW4.8 kmh WNW 3.0 mph4.8 kmh 30.49 in1032.5 mb 0.00 in0.0 mm 0.00 in0.0 mm 0.00 in0.0 mm
08:37 AM 36.1°F2.3°C 29.0°F-1.7°C 75% Calm Calm -- 30.49 in1032.5 mb 0.00 in0.0 mm 0.00 in0.0 mm 0.00 in0.0 mm
08:36 AM 36.0°F2.2°C 28.2°F-2.1°C 73% Calm Calm 1.0 mph1.6 kmh 30.49 in1032.5 mb 0.00 in0.0 mm 0.00 in0.0 mm 0.00 in0.0 mm
08:35 AM 35.9°F2.2°C 28.1°F-2.2°C 73% 1.0 mph N1.6 kmh N 1.0 mph1.6 kmh 30.49 in1032.5 mb 0.00 in0.0 mm 0.00 in0.0 mm 0.00 in0.0 mm
08:34 AM 35.7°F2.1°C 28.2°F-2.1°C 74% Calm Calm -- 30.49 in1032.5 mb 0.00 in0.0 mm 0.00 in0.0 mm 0.00 in0.0 mm
08:33 AM 35.4°F1.9°C 28.6°F-1.9°C 76% Calm Calm 2.0 mph3.2 kmh 30.49 in1032.5 mb 0.00 in0.0 mm 0.00 in0.0 mm 0.00 in0.0 mm
08:32 AM 35.1°F1.7°C 29.3°F-1.5°C 79% 2.0 mph N3.2 kmh N 2.0 mph3.2 kmh 30.49 in1032.5 mb 0.00 in0.0 mm 0.00 in0.0 mm 0.00 in0.0 mm
08:31 AM 34.8°F1.6°C 29.0°F-1.7°C 79% Calm Calm 2.0 mph3.2 kmh 30.49 in1032.5 mb 0.00 in0.0 mm 0.00 in0.0 mm 0.00 in0.0 mm
08:30 AM 34.4°F1.3°C 28.9°F-1.7°C 80% 2.0 mph N3.2 kmh N 2.0 mph3.2 kmh 30.49 in1032.5 mb 0.00 in0.0 mm 0.00 in0.0 mm 0.00 in0.0 mm
08:29 AM 34.1°F1.2°C 28.0°F-2.2°C 78% Calm Calm -- 30.48 in1032.2 mb 0.00 in0.0 mm 0.00 in0.0 mm 0.00 in0.0 mm
08:28 AM 34.1°F1.2°C 28.3°F-2.1°C 79% Calm Calm 2.0 mph3.2 kmh 30.48 in1032.2 mb 0.00 in0.0 mm 0.00 in0.0 mm 0.00 in0.0 mm
08:27 AM 34.0°F1.1°C 28.2°F-2.1°C 79% Calm Calm 2.0 mph3.2 kmh 30.49 in1032.5 mb 0.00 in0.0 mm 0.00 in0.0 mm 0.00 in0.0 mm
08:26 AM 33.9°F1.1°C 28.4°F-2.0°C 80% 2.0 mph N3.2 kmh N 2.0 mph3.2 kmh 30.49 in1032.5 mb 0.00 in0.0 mm 0.00 in0.0 mm 0.00 in0.0 mm
08:25 AM 33.8°F1.0°C 28.3°F-2.1°C 80% 2.0 mph N3.2 kmh N 2.0 mph3.2 kmh 30.49 in1032.5 mb 0.00 in0.0 mm 0.00 in0.0 mm 0.00 in0.0 mm
08:24 AM 33.7°F0.9°C 28.2°F-2.1°C 80% Calm Calm 5.0 mph8.0 kmh 30.49 in1032.5 mb 0.00 in0.0 mm 0.00 in0.0 mm 0.00 in0.0 mm
08:23 AM 33.6°F0.9°C 28.1°F-2.2°C 80% Calm Calm 5.0 mph8.0 kmh 30.48 in1032.2 mb 0.00 in0.0 mm 0.00 in0.0 mm 0.00 in0.0 mm
08:22 AM 33.5°F0.8°C 28.0°F-2.2°C 80% 2.0 mph 3.2 kmh 5.0 mph8.0 kmh 30.48 in1032.2 mb 0.00 in0.0 mm 0.00 in0.0 mm 0.00 in0.0 mm
08:21 AM 33.7°F0.9°C 28.2°F-2.1°C 80% 1.0 mph N1.6 kmh N 5.0 mph8.0 kmh 30.48 in1032.2 mb 0.00 in0.0 mm 0.00 in0.0 mm 0.00 in0.0 mm
08:20 AM 33.9°F1.1°C 28.1°F-2.2°C 79% 1.0 mph N1.6 kmh N 3.0 mph4.8 kmh 30.48 in1032.2 mb 0.00 in0.0 mm 0.00 in0.0 mm 0.00 in0.0 mm
08:19 AM 33.9°F1.1°C 27.8°F-2.3°C 78% 2.0 mph NW3.2 kmh NW 3.0 mph4.8 kmh 30.48 in1032.2 mb 0.00 in0.0 mm 0.00 in0.0 mm 0.00 in0.0 mm
08:18 AM 33.5°F0.8°C 27.7°F-2.4°C 79% Calm Calm 3.0 mph4.8 kmh 30.48 in1032.2 mb 0.00 in0.0 mm 0.00 in0.0 mm 0.00 in0.0 mm
08:17 AM 33.1°F0.6°C 27.6°F-2.4°C 80% Calm Calm 3.0 mph4.8 kmh 30.48 in1032.2 mb 0.00 in0.0 mm 0.00 in0.0 mm 0.00 in0.0 mm
08:16 AM 32.7°F0.4°C 27.2°F-2.7°C 80% Calm Calm 3.0 mph4.8 kmh 30.48 in1032.2 mb 0.00 in0.0 mm 0.00 in0.0 mm 0.00 in0.0 mm
08:15 AM 32.4°F0.2°C 26.9°F-2.8°C 80% 1.0 mph NW1.6 kmh NW 3.0 mph4.8 kmh 30.48 in1032.2 mb 0.00 in0.0 mm 0.00 in0.0 mm 0.00 in0.0 mm
08:14 AM 32.4°F0.2°C 27.2°F-2.7°C 81% Calm Calm 3.0 mph4.8 kmh 30.48 in1032.2 mb 0.00 in0.0 mm 0.00 in0.0 mm 0.00 in0.0 mm
08:13 AM 32.4°F0.2°C 26.9°F-2.8°C 80% 2.0 mph NW3.2 kmh NW 3.0 mph4.8 kmh 30.48 in1032.2 mb 0.00 in0.0 mm 0.00 in0.0 mm 0.00 in0.0 mm
08:12 AM 32.4°F0.2°C 26.9°F-2.8°C 80% Calm Calm 3.0 mph4.8 kmh 30.48 in1032.2 mb 0.00 in0.0 mm 0.00 in0.0 mm 0.00 in0.0 mm
08:11 AM 32.5°F0.3°C 26.7°F-2.9°C 79% 3.0 mph W4.8 kmh W 3.0 mph4.8 kmh 30.48 in1032.2 mb 0.00 in0.0 mm 0.00 in0.0 mm 0.00 in0.0 mm
08:10 AM 32.7°F0.4°C 27.2°F-2.7°C 80% Calm Calm -- 30.48 in1032.2 mb 0.00 in0.0 mm 0.00 in0.0 mm 0.00 in0.0 mm
08:09 AM 32.8°F0.4°C 27.3°F-2.6°C 80% Calm Calm -- 30.48 in1032.2 mb 0.00 in0.0 mm 0.00 in0.0 mm 0.00 in0.0 mm
08:08 AM 33.0°F0.6°C 27.5°F-2.5°C 80% Calm Calm -- 30.48 in1032.2 mb 0.00 in0.0 mm 0.00 in0.0 mm 0.00 in0.0 mm
08:07 AM 33.1°F0.6°C 27.3°F-2.6°C 79% Calm Calm -- 30.48 in1032.2 mb 0.00 in0.0 mm 0.00 in0.0 mm 0.00 in0.0 mm
08:06 AM 33.2°F0.7°C 27.4°F-2.6°C 79% Calm Calm -- 30.48 in1032.2 mb 0.00 in0.0 mm 0.00 in0.0 mm 0.00 in0.0 mm
08:05 AM 33.3°F0.7°C 27.5°F-2.5°C 79% Calm Calm 2.0 mph3.2 kmh 30.48 in1032.2 mb 0.00 in0.0 mm 0.00 in0.0 mm 0.00 in0.0 mm
08:04 AM 33.3°F0.7°C 27.2°F-2.7°C 78% 1.0 mph W1.6 kmh W 2.0 mph3.2 kmh 30.48 in1032.2 mb 0.00 in0.0 mm 0.00 in0.0 mm 0.00 in0.0 mm
08:03 AM 33.2°F0.7°C 27.1°F-2.7°C 78% 2.0 mph W3.2 kmh W 2.0 mph3.2 kmh 30.48 in1032.2 mb 0.00 in0.0 mm 0.00 in0.0 mm 0.00 in0.0 mm
08:02 AM 33.2°F0.7°C 26.8°F-2.9°C 77% 1.0 mph W1.6 kmh W 2.0 mph3.2 kmh 30.48 in1032.2 mb 0.00 in0.0 mm 0.00 in0.0 mm 0.00 in0.0 mm
08:01 AM 33.0°F0.6°C 26.6°F-3.0°C 77% Calm Calm 1.0 mph1.6 kmh 30.48 in1032.2 mb 0.00 in0.0 mm 0.00 in0.0 mm 0.00 in0.0 mm
08:00 AM 32.9°F0.5°C 26.8°F-2.9°C 78% Calm Calm -- 30.48 in1032.2 mb 0.00 in0.0 mm 0.00 in0.0 mm 0.00 in0.0 mm
07:59 AM 32.8°F0.4°C 26.7°F-2.9°C 78% Calm Calm -- 30.48 in1032.2 mb 0.00 in0.0 mm 0.00 in0.0 mm 0.00 in0.0 mm
07:58 AM 32.6°F0.3°C 26.5°F-3.1°C 78% Calm Calm -- 30.48 in1032.2 mb 0.00 in0.0 mm 0.00 in0.0 mm 0.00 in0.0 mm
07:57 AM 32.3°F0.2°C 26.5°F-3.1°C 79% Calm Calm -- 30.48 in1032.2 mb 0.00 in0.0 mm 0.00 in0.0 mm 0.00 in0.0 mm
07:56 AM 32.2°F0.1°C 26.4°F-3.1°C 79% Calm Calm -- 30.48 in1032.2 mb 0.00 in0.0 mm 0.00 in0.0 mm 0.00 in0.0 mm
07:55 AM 32.2°F0.1°C 26.1°F-3.3°C 78% Calm Calm 3.0 mph4.8 kmh 30.48 in1032.2 mb 0.00 in0.0 mm 0.00 in0.0 mm 0.00 in0.0 mm
07:54 AM 32.3°F0.2°C 26.2°F-3.2°C 78% Calm Calm 3.0 mph4.8 kmh 30.48 in1032.2 mb 0.00 in0.0 mm 0.00 in0.0 mm 0.00 in0.0 mm
07:53 AM 32.4°F0.2°C 26.3°F-3.2°C 78% 2.0 mph W3.2 kmh W 3.0 mph4.8 kmh 30.48 in1032.2 mb 0.00 in0.0 mm 0.00 in0.0 mm 0.00 in0.0 mm
07:52 AM 32.5°F0.3°C 26.4°F-3.1°C 78% 2.0 mph W3.2 kmh W 3.0 mph4.8 kmh 30.47 in1031.8 mb 0.00 in0.0 mm 0.00 in0.0 mm 0.00 in0.0 mm
07:51 AM 32.4°F0.2°C 26.3°F-3.2°C 78% Calm Calm -- 30.47 in1031.8 mb 0.00 in0.0 mm 0.00 in0.0 mm 0.00 in0.0 mm
07:50 AM 32.5°F0.3°C 26.4°F-3.1°C 78% Calm Calm -- 30.47 in1031.8 mb 0.00 in0.0 mm 0.00 in0.0 mm 0.00 in0.0 mm
07:49 AM 32.5°F0.3°C 26.1°F-3.3°C 77% Calm Calm -- 30.48 in1032.2 mb 0.00 in0.0 mm 0.00 in0.0 mm 0.00 in0.0 mm
07:48 AM 32.4°F0.2°C 26.3°F-3.2°C 78% Calm Calm -- 30.48 in1032.2 mb 0.00 in0.0 mm 0.00 in0.0 mm 0.00 in0.0 mm
07:47 AM 32.2°F0.1°C 26.1°F-3.3°C 78% Calm Calm 1.0 mph1.6 kmh 30.47 in1031.8 mb 0.00 in0.0 mm 0.00 in0.0 mm 0.00 in0.0 mm
07:46 AM 32.1°F0.1°C 26.0°F-3.3°C 78% Calm Calm 1.0 mph1.6 kmh 30.47 in1031.8 mb 0.00 in0.0 mm 0.00 in0.0 mm 0.00 in0.0 mm
07:45 AM 31.9°F-0.1°C 26.1°F-3.3°C 79% Calm Calm 1.0 mph1.6 kmh 30.47 in1031.8 mb 0.00 in0.0 mm 0.00 in0.0 mm 0.00 in0.0 mm
07:44 AM 31.7°F-0.2°C 25.9°F-3.4°C 79% Calm Calm 1.0 mph1.6 kmh 30.48 in1032.2 mb 0.00 in0.0 mm 0.00 in0.0 mm 0.00 in0.0 mm
07:43 AM 31.6°F-0.2°C 25.8°F-3.4°C 79% Calm Calm -- 30.47 in1031.8 mb 0.00 in0.0 mm 0.00 in0.0 mm 0.00 in0.0 mm
07:42 AM 31.4°F-0.3°C 26.0°F-3.3°C 80% Calm Calm 5.0 mph8.0 kmh 30.47 in1031.8 mb 0.00 in0.0 mm 0.00 in0.0 mm 0.00 in0.0 mm
07:41 AM 31.3°F-0.4°C 25.9°F-3.4°C 80% 1.0 mph W1.6 kmh W 5.0 mph8.0 kmh 30.47 in1031.8 mb 0.00 in0.0 mm 0.00 in0.0 mm 0.00 in0.0 mm
07:40 AM 31.3°F-0.4°C 25.9°F-3.4°C 80% Calm Calm 5.0 mph8.0 kmh 30.47 in1031.8 mb 0.00 in0.0 mm 0.00 in0.0 mm 0.00 in0.0 mm
07:39 AM 31.3°F-0.4°C 25.6°F-3.6°C 79% Calm Calm 5.0 mph8.0 kmh 30.47 in1031.8 mb 0.00 in0.0 mm 0.00 in0.0 mm 0.00 in0.0 mm
07:38 AM 31.2°F-0.4°C 25.5°F-3.6°C 79% Calm Calm 5.0 mph8.0 kmh 30.47 in1031.8 mb 0.00 in0.0 mm 0.00 in0.0 mm 0.00 in0.0 mm
07:37 AM 31.1°F-0.5°C 25.4°F-3.7°C 79% Calm Calm 5.0 mph8.0 kmh 30.47 in1031.8 mb 0.00 in0.0 mm 0.00 in0.0 mm 0.00 in0.0 mm
07:36 AM 31.1°F-0.5°C 25.4°F-3.7°C 79% 1.0 mph NNW1.6 kmh NNW 5.0 mph8.0 kmh 30.47 in1031.8 mb 0.00 in0.0 mm 0.00 in0.0 mm 0.00 in0.0 mm
07:35 AM 31.2°F-0.4°C 25.2°F-3.8°C 78% 3.0 mph NNW4.8 kmh NNW 5.0 mph8.0 kmh 30.47 in1031.8 mb 0.00 in0.0 mm 0.00 in0.0 mm 0.00 in0.0 mm
07:34 AM 31.4°F-0.3°C 25.3°F-3.7°C 78% 3.0 mph W4.8 kmh W 3.0 mph4.8 kmh 30.47 in1031.8 mb 0.00 in0.0 mm 0.00 in0.0 mm 0.00 in0.0 mm
07:33 AM 31.4°F-0.3°C 25.0°F-3.9°C 77% 2.0 mph WSW3.2 kmh WSW 3.0 mph4.8 kmh 30.47 in1031.8 mb 0.00 in0.0 mm 0.00 in0.0 mm 0.00 in0.0 mm
07:32 AM 31.5°F-0.3°C 25.1°F-3.8°C 77% Calm Calm 3.0 mph4.8 kmh 30.47 in1031.8 mb 0.00 in0.0 mm 0.00 in0.0 mm 0.00 in0.0 mm
07:31 AM 31.7°F-0.2°C 25.3°F-3.7°C 77% 2.0 mph WSW3.2 kmh WSW 3.0 mph4.8 kmh 30.47 in1031.8 mb 0.00 in0.0 mm 0.00 in0.0 mm 0.00 in0.0 mm
07:30 AM 32.0°F0.0°C 25.3°F-3.7°C 76% 3.0 mph WSW4.8 kmh WSW 3.0 mph4.8 kmh 30.47 in1031.8 mb 0.00 in0.0 mm 0.00 in0.0 mm 0.00 in0.0 mm
07:29 AM 32.2°F0.1°C 25.5°F-3.6°C 76% 1.0 mph WSW1.6 kmh WSW 3.0 mph4.8 kmh 30.47 in1031.8 mb 0.00 in0.0 mm 0.00 in0.0 mm 0.00 in0.0 mm
07:28 AM 32.2°F0.1°C 25.5°F-3.6°C 76% 2.0 mph WSW3.2 kmh WSW 3.0 mph4.8 kmh 30.47 in1031.8 mb 0.00 in0.0 mm 0.00 in0.0 mm 0.00 in0.0 mm
07:27 AM 32.2°F0.1°C 25.8°F-3.4°C 77% 2.0 mph WSW3.2 kmh WSW 2.0 mph3.2 kmh 30.47 in1031.8 mb 0.00 in0.0 mm 0.00 in0.0 mm 0.00 in0.0 mm
07:26 AM 32.1°F0.1°C 25.7°F-3.5°C 77% Calm Calm 2.0 mph3.2 kmh 30.47 in1031.8 mb 0.00 in0.0 mm 0.00 in0.0 mm 0.00 in0.0 mm
07:25 AM 32.0°F0.0°C 25.6°F-3.6°C 77% Calm Calm -- 30.47 in1031.8 mb 0.00 in0.0 mm 0.00 in0.0 mm 0.00 in0.0 mm
07:24 AM 31.9°F-0.1°C 25.8°F-3.4°C 78% Calm Calm -- 30.47 in1031.8 mb 0.00 in0.0 mm 0.00 in0.0 mm 0.00 in0.0 mm
07:23 AM 31.8°F-0.1°C 25.7°F-3.5°C 78% Calm Calm -- 30.47 in1031.8 mb 0.00 in0.0 mm 0.00 in0.0 mm 0.00 in0.0 mm
07:22 AM 31.7°F-0.2°C 25.6°F-3.6°C 78% Calm Calm -- 30.47 in1031.8 mb 0.00 in0.0 mm 0.00 in0.0 mm 0.00 in0.0 mm
07:21 AM 31.6°F-0.2°C 25.8°F-3.4°C 79% Calm Calm -- 30.47 in1031.8 mb 0.00 in0.0 mm 0.00 in0.0 mm 0.00 in0.0 mm
07:20 AM 31.5°F-0.3°C 25.8°F-3.4°C 79% Calm Calm -- 30.47 in1031.8 mb 0.00 in0.0 mm 0.00 in0.0 mm 0.00 in0.0 mm
07:19 AM 31.5°F-0.3°C 25.8°F-3.4°C 79% Calm Calm -- 30.47 in1031.8 mb 0.00 in0.0 mm 0.00 in0.0 mm 0.00 in0.0 mm
07:18 AM 31.4°F-0.3°C 26.0°F-3.3°C 80% Calm Calm -- 30.47 in1031.8 mb 0.00 in0.0 mm 0.00 in0.0 mm 0.00 in0.0 mm
07:17 AM 31.4°F-0.3°C 25.7°F-3.5°C 79% Calm Calm 3.0 mph4.8 kmh 30.47 in1031.8 mb 0.00 in0.0 mm 0.00 in0.0 mm 0.00 in0.0 mm
07:16 AM 31.3°F-0.4°C 25.6°F-3.6°C 79% 1.0 mph WSW1.6 kmh WSW 3.0 mph4.8 kmh 30.47 in1031.8 mb 0.00 in0.0 mm 0.00 in0.0 mm 0.00 in0.0 mm
07:15 AM 31.2°F-0.4°C 25.5°F-3.6°C 79% 1.0 mph WSW1.6 kmh WSW 3.0 mph4.8 kmh 30.46 in1031.5 mb 0.00 in0.0 mm 0.00 in0.0 mm 0.00 in0.0 mm
07:14 AM 31.2°F-0.4°C 25.2°F-3.8°C 78% 2.0 mph WSW3.2 kmh WSW 2.0 mph3.2 kmh 30.46 in1031.5 mb 0.00 in0.0 mm 0.00 in0.0 mm 0.00 in0.0 mm
07:13 AM 31.2°F-0.4°C 25.2°F-3.8°C 78% Calm Calm 1.0 mph1.6 kmh 30.46 in1031.5 mb 0.00 in0.0 mm 0.00 in0.0 mm 0.00 in0.0 mm
07:12 AM 31.2°F-0.4°C 25.2°F-3.8°C 78% 1.0 mph WSW1.6 kmh WSW 1.0 mph1.6 kmh 30.47 in1031.8 mb 0.00 in0.0 mm 0.00 in0.0 mm 0.00 in0.0 mm
07:11 AM 31.5°F-0.3°C 25.4°F-3.7°C 78% Calm Calm -- 30.46 in1031.5 mb 0.00 in0.0 mm 0.00 in0.0 mm 0.00 in0.0 mm
07:10 AM 31.7°F-0.2°C 25.0°F-3.9°C 76% Calm Calm 3.0 mph4.8 kmh 30.46 in1031.5 mb 0.00 in0.0 mm 0.00 in0.0 mm 0.00 in0.0 mm
07:09 AM 32.0°F0.0°C 25.3°F-3.7°C 76% Calm Calm 3.0 mph4.8 kmh 30.46 in1031.5 mb 0.00 in0.0 mm 0.00 in0.0 mm 0.00 in0.0 mm
07:08 AM 32.1°F0.1°C 25.4°F-3.7°C 76% 2.0 mph WSW3.2 kmh WSW 3.0 mph4.8 kmh 30.46 in1031.5 mb 0.00 in0.0 mm 0.00 in0.0 mm 0.00 in0.0 mm
07:07 AM 32.0°F0.0°C 25.6°F-3.6°C 77% 1.0 mph WSW1.6 kmh WSW 3.0 mph4.8 kmh 30.46 in1031.5 mb 0.00 in0.0 mm 0.00 in0.0 mm 0.00 in0.0 mm
07:06 AM 31.7°F-0.2°C 25.3°F-3.7°C 77% 1.0 mph WSW1.6 kmh WSW 3.0 mph4.8 kmh 30.46 in1031.5 mb 0.00 in0.0 mm 0.00 in0.0 mm 0.00 in0.0 mm
07:05 AM 31.6°F-0.2°C 25.2°F-3.8°C 77% 1.0 mph WSW1.6 kmh WSW 3.0 mph4.8 kmh 30.46 in1031.5 mb 0.00 in0.0 mm 0.00 in0.0 mm 0.00 in0.0 mm
07:04 AM 31.7°F-0.2°C 25.3°F-3.7°C 77% Calm Calm -- 30.46 in1031.5 mb 0.00 in0.0 mm 0.00 in0.0 mm 0.00 in0.0 mm
07:03 AM 31.8°F-0.1°C 25.4°F-3.7°C 77% Calm Calm 6.0 mph9.7 kmh 30.46 in1031.5 mb 0.00 in0.0 mm 0.00 in0.0 mm 0.00 in0.0 mm
07:02 AM 31.8°F-0.1°C 25.4°F-3.7°C 77% 1.0 mph SSW1.6 kmh SSW 6.0 mph9.7 kmh 30.46 in1031.5 mb 0.00 in0.0 mm 0.00 in0.0 mm 0.00 in0.0 mm
07:01 AM 31.7°F-0.2°C 25.3°F-3.7°C 77% Calm Calm 6.0 mph9.7 kmh 30.46 in1031.5 mb 0.00 in0.0 mm 0.00 in0.0 mm 0.00 in0.0 mm
07:00 AM 31.7°F-0.2°C 25.6°F-3.6°C 78% Calm Calm 6.0 mph9.7 kmh 30.46 in1031.5 mb 0.00 in0.0 mm 0.00 in0.0 mm 0.00 in0.0 mm
06:59 AM 31.6°F-0.2°C 25.5°F-3.6°C 78% Calm Calm 6.0 mph9.7 kmh 30.46 in1031.5 mb 0.00 in0.0 mm 0.00 in0.0 mm 0.00 in0.0 mm
06:58 AM 31.7°F-0.2°C 25.6°F-3.6°C 78% Calm Calm 6.0 mph9.7 kmh 30.46 in1031.5 mb 0.00 in0.0 mm 0.00 in0.0 mm 0.00 in0.0 mm
06:57 AM 31.6°F-0.2°C 25.5°F-3.6°C 78% Calm Calm 6.0 mph9.7 kmh 30.46 in1031.5 mb 0.00 in0.0 mm 0.00 in0.0 mm 0.00 in0.0 mm
06:56 AM 31.5°F-0.3°C 25.8°F-3.4°C 79% 1.0 mph SSW1.6 kmh SSW 6.0 mph9.7 kmh 30.46 in1031.5 mb 0.00 in0.0 mm 0.00 in0.0 mm 0.00 in0.0 mm
06:55 AM 31.5°F-0.3°C 25.8°F-3.4°C 79% Calm Calm 6.0 mph9.7 kmh 30.45 in1031.2 mb 0.00 in0.0 mm 0.00 in0.0 mm 0.00 in0.0 mm
06:54 AM 31.4°F-0.3°C 25.7°F-3.5°C 79% 3.0 mph SSW4.8 kmh SSW 6.0 mph9.7 kmh 30.45 in1031.2 mb 0.00 in0.0 mm 0.00 in0.0 mm 0.00 in0.0 mm
06:53 AM 31.3°F-0.4°C 25.6°F-3.6°C 79% 4.0 mph SSW6.4 kmh SSW 6.0 mph9.7 kmh 30.45 in1031.2 mb 0.00 in0.0 mm 0.00 in0.0 mm 0.00 in0.0 mm
06:52 AM 31.2°F-0.4°C 25.5°F-3.6°C 79% 3.0 mph SW4.8 kmh SW 4.0 mph6.4 kmh 30.45 in1031.2 mb 0.00 in0.0 mm 0.00 in0.0 mm 0.00 in0.0 mm
06:51 AM 30.9°F-0.6°C 25.2°F-3.8°C 79% Calm Calm 4.0 mph6.4 kmh 30.45 in1031.2 mb 0.00 in0.0 mm 0.00 in0.0 mm 0.00 in0.0 mm
06:50 AM 30.7°F-0.7°C 25.3°F-3.7°C 80% 1.0 mph W1.6 kmh W 4.0 mph6.4 kmh 30.45 in1031.2 mb 0.00 in0.0 mm 0.00 in0.0 mm 0.00 in0.0 mm
06:49 AM 30.6°F-0.8°C 25.2°F-3.8°C 80% 1.0 mph W1.6 kmh W 4.0 mph6.4 kmh 30.45 in1031.2 mb 0.00 in0.0 mm 0.00 in0.0 mm 0.00 in0.0 mm
06:48 AM 30.5°F-0.8°C 24.8°F-4.0°C 79% 1.0 mph W1.6 kmh W 4.0 mph6.4 kmh 30.45 in1031.2 mb 0.00 in0.0 mm 0.00 in0.0 mm 0.00 in0.0 mm
06:47 AM 30.6°F-0.8°C 24.9°F-3.9°C 79% 3.0 mph W4.8 kmh W 4.0 mph6.4 kmh 30.45 in1031.2 mb 0.00 in0.0 mm 0.00 in0.0 mm 0.00 in0.0 mm
06:46 AM 30.7°F-0.7°C 24.7°F-4.1°C 78% 1.0 mph W1.6 kmh W 4.0 mph6.4 kmh 30.45 in1031.2 mb 0.00 in0.0 mm 0.00 in0.0 mm 0.00 in0.0 mm
06:45 AM 30.8°F-0.7°C 24.8°F-4.0°C 78% 2.0 mph W3.2 kmh W 4.0 mph6.4 kmh 30.45 in1031.2 mb 0.00 in0.0 mm 0.00 in0.0 mm 0.00 in0.0 mm
06:44 AM 30.9°F-0.6°C 24.9°F-3.9°C 78% 4.0 mph W6.4 kmh W 4.0 mph6.4 kmh 30.45 in1031.2 mb 0.00 in0.0 mm 0.00 in0.0 mm 0.00 in0.0 mm
06:43 AM 31.1°F-0.5°C 25.1°F-3.8°C 78% 2.0 mph W3.2 kmh W 3.0 mph4.8 kmh 30.45 in1031.2 mb 0.00 in0.0 mm 0.00 in0.0 mm 0.00 in0.0 mm
06:42 AM 31.2°F-0.4°C 25.2°F-3.8°C 78% 1.0 mph W1.6 kmh W 3.0 mph4.8 kmh 30.44 in1030.8 mb 0.00 in0.0 mm 0.00 in0.0 mm 0.00 in0.0 mm
06:41 AM 31.3°F-0.4°C 25.3°F-3.7°C 78% 2.0 mph W3.2 kmh W 2.0 mph3.2 kmh 30.44 in1030.8 mb 0.00 in0.0 mm 0.00 in0.0 mm 0.00 in0.0 mm
06:40 AM 31.4°F-0.3°C 25.0°F-3.9°C 77% Calm Calm -- 30.44 in1030.8 mb 0.00 in0.0 mm 0.00 in0.0 mm 0.00 in0.0 mm
06:39 AM 31.5°F-0.3°C 24.8°F-4.0°C 76% Calm Calm 20.0 mph32.2 kmh 30.45 in1031.2 mb 0.00 in0.0 mm 0.00 in0.0 mm 0.00 in0.0 mm
06:38 AM 31.7°F-0.2°C 25.0°F-3.9°C 76% Calm Calm 20.0 mph32.2 kmh 30.44 in1030.8 mb 0.00 in0.0 mm 0.00 in0.0 mm 0.00 in0.0 mm
06:37 AM 32.0°F0.0°C 25.0°F-3.9°C 75% 1.0 mph W1.6 kmh W 20.0 mph32.2 kmh 30.44 in1030.8 mb 0.00 in0.0 mm 0.00 in0.0 mm 0.00 in0.0 mm
06:36 AM 32.3°F0.2°C 25.3°F-3.7°C 75% 3.0 mph SW4.8 kmh SW 20.0 mph32.2 kmh 30.44 in1030.8 mb 0.00 in0.0 mm 0.00 in0.0 mm 0.00 in0.0 mm
06:35 AM 32.6°F0.3°C 25.2°F-3.8°C 74% 3.0 mph SW4.8 kmh SW 20.0 mph32.2 kmh 30.44 in1030.8 mb 0.00 in0.0 mm 0.00 in0.0 mm 0.00 in0.0 mm
06:34 AM 32.8°F0.4°C 25.4°F-3.7°C 74% 2.0 mph SW3.2 kmh SW 20.0 mph32.2 kmh 30.44 in1030.8 mb 0.00 in0.0 mm 0.00 in0.0 mm 0.00 in0.0 mm
06:33 AM 33.2°F0.7°C 25.8°F-3.4°C 74% 1.0 mph SW1.6 kmh SW 20.0 mph32.2 kmh 30.43 in1030.5 mb 0.00 in0.0 mm 0.00 in0.0 mm 0.00 in0.0 mm
06:32 AM 33.4°F0.8°C 26.0°F-3.3°C 74% Calm Calm 20.0 mph32.2 kmh 30.43 in1030.5 mb 0.00 in0.0 mm 0.00 in0.0 mm 0.00 in0.0 mm
06:31 AM 33.7°F0.9°C 26.0°F-3.3°C 73% 2.0 mph SSW3.2 kmh SSW 20.0 mph32.2 kmh 30.43 in1030.5 mb 0.00 in0.0 mm 0.00 in0.0 mm 0.00 in0.0 mm
06:30 AM 34.0°F1.1°C 26.3°F-3.2°C 73% Calm Calm 20.0 mph32.2 kmh 30.43 in1030.5 mb 0.00 in0.0 mm 0.00 in0.0 mm 0.00 in0.0 mm
06:29 AM 34.3°F1.3°C 27.2°F-2.7°C 75% 4.0 mph NW6.4 kmh NW 20.0 mph32.2 kmh 30.44 in1030.8 mb 0.00 in0.0 mm 0.00 in0.0 mm 0.00 in0.0 mm
06:28 AM 34.4°F1.3°C 27.3°F-2.6°C 75% 5.0 mph NW8.0 kmh NW 20.0 mph32.2 kmh 30.44 in1030.8 mb 0.00 in0.0 mm 0.00 in0.0 mm 0.00 in0.0 mm
06:27 AM 34.4°F1.3°C 27.3°F-2.6°C 75% 8.0 mph SW12.9 kmh SW 20.0 mph32.2 kmh 30.43 in1030.5 mb 0.00 in0.0 mm 0.00 in0.0 mm 0.00 in0.0 mm
06:26 AM 34.4°F1.3°C 27.3°F-2.6°C 75% 11.0 mph S17.7 kmh S 20.0 mph32.2 kmh 30.42 in1030.1 mb 0.00 in0.0 mm 0.00 in0.0 mm 0.00 in0.0 mm
06:25 AM 34.4°F1.3°C 27.3°F-2.6°C 75% 17.0 mph SSW27.4 kmh SSW 20.0 mph32.2 kmh 30.43 in1030.5 mb 0.00 in0.0 mm 0.00 in0.0 mm 0.00 in0.0 mm
06:24 AM 34.4°F1.3°C 27.3°F-2.6°C 75% 10.0 mph SW16.1 kmh SW 20.0 mph32.2 kmh 30.43 in1030.5 mb 0.00 in0.0 mm 0.00 in0.0 mm 0.00 in0.0 mm
06:23 AM 34.4°F1.3°C 27.0°F-2.8°C 74% 9.0 mph SSW14.5 kmh SSW 19.0 mph30.6 kmh 30.43 in1030.5 mb 0.00 in0.0 mm 0.00 in0.0 mm 0.00 in0.0 mm
06:22 AM 34.4°F1.3°C 27.0°F-2.8°C 74% 9.0 mph SSW14.5 kmh SSW 19.0 mph30.6 kmh 30.43 in1030.5 mb 0.00 in0.0 mm 0.00 in0.0 mm 0.00 in0.0 mm
06:21 AM 34.4°F1.3°C 27.0°F-2.8°C 74% 8.0 mph SSW12.9 kmh SSW 19.0 mph30.6 kmh 30.43 in1030.5 mb 0.00 in0.0 mm 0.00 in0.0 mm 0.00 in0.0 mm
06:20 AM 34.5°F1.4°C 27.1°F-2.7°C 74% 10.0 mph SSW16.1 kmh SSW 19.0 mph30.6 kmh 30.42 in1030.1 mb 0.00 in0.0 mm 0.00 in0.0 mm 0.00 in0.0 mm
06:19 AM 34.5°F1.4°C 27.1°F-2.7°C 74% 10.0 mph S16.1 kmh S 19.0 mph30.6 kmh 30.42 in1030.1 mb 0.00 in0.0 mm 0.00 in0.0 mm 0.00 in0.0 mm
06:18 AM 34.5°F1.4°C 27.1°F-2.7°C 74% 16.0 mph SSW25.7 kmh SSW 19.0 mph30.6 kmh 30.42 in1030.1 mb 0.00 in0.0 mm 0.00 in0.0 mm 0.00 in0.0 mm
06:17 AM 34.5°F1.4°C 27.1°F-2.7°C 74% 9.0 mph SW14.5 kmh SW 18.0 mph29.0 kmh 30.42 in1030.1 mb 0.00 in0.0 mm 0.00 in0.0 mm 0.00 in0.0 mm
06:16 AM 34.5°F1.4°C 27.1°F-2.7°C 74% 17.0 mph S27.4 kmh S 18.0 mph29.0 kmh 30.42 in1030.1 mb 0.00 in0.0 mm 0.00 in0.0 mm 0.00 in0.0 mm
06:15 AM 34.5°F1.4°C 27.1°F-2.7°C 74% 10.0 mph S16.1 kmh S 18.0 mph29.0 kmh 30.43 in1030.5 mb 0.00 in0.0 mm 0.00 in0.0 mm 0.00 in0.0 mm
06:14 AM 34.5°F1.4°C 27.1°F-2.7°C 74% 12.0 mph SSE19.3 kmh SSE 18.0 mph29.0 kmh 30.43 in1030.5 mb 0.00 in0.0 mm 0.00 in0.0 mm 0.00 in0.0 mm
06:13 AM 34.4°F1.3°C 27.0°F-2.8°C 74% 14.0 mph S22.5 kmh S 18.0 mph29.0 kmh 30.43 in1030.5 mb 0.00 in0.0 mm 0.00 in0.0 mm 0.00 in0.0 mm
06:12 AM 34.4°F1.3°C 27.0°F-2.8°C 74% 12.0 mph S19.3 kmh S 18.0 mph29.0 kmh 30.43 in1030.5 mb 0.00 in0.0 mm 0.00 in0.0 mm 0.00 in0.0 mm
06:11 AM 34.3°F1.3°C 26.9°F-2.8°C 74% 10.0 mph S16.1 kmh S 17.0 mph27.4 kmh 30.43 in1030.5 mb 0.00 in0.0 mm 0.00 in0.0 mm 0.00 in0.0 mm
06:10 AM 34.2°F1.2°C 26.8°F-2.9°C 74% 10.0 mph S16.1 kmh S 17.0 mph27.4 kmh 30.43 in1030.5 mb 0.00 in0.0 mm 0.00 in0.0 mm 0.00 in0.0 mm
06:09 AM 34.0°F1.1°C 26.9°F-2.8°C 75% 15.0 mph S24.1 kmh S 17.0 mph27.4 kmh 30.42 in1030.1 mb 0.00 in0.0 mm 0.00 in0.0 mm 0.00 in0.0 mm
06:08 AM 33.9°F1.1°C 26.8°F-2.9°C 75% 8.0 mph SSW12.9 kmh SSW 17.0 mph27.4 kmh 30.43 in1030.5 mb 0.00 in0.0 mm 0.00 in0.0 mm 0.00 in0.0 mm
06:07 AM 33.8°F1.0°C 27.1°F-2.7°C 76% 8.0 mph SW12.9 kmh SW 17.0 mph27.4 kmh 30.43 in1030.5 mb 0.00 in0.0 mm 0.00 in0.0 mm 0.00 in0.0 mm
06:06 AM 33.7°F0.9°C 27.0°F-2.8°C 76% 12.0 mph S19.3 kmh S 14.0 mph22.5 kmh 30.42 in1030.1 mb 0.00 in0.0 mm 0.00 in0.0 mm 0.00 in0.0 mm
06:05 AM 33.5°F0.8°C 26.8°F-2.9°C 76% 10.0 mph SW16.1 kmh SW 14.0 mph22.5 kmh 30.43 in1030.5 mb 0.00 in0.0 mm 0.00 in0.0 mm 0.00 in0.0 mm
06:04 AM 33.2°F0.7°C 26.5°F-3.1°C 76% 10.0 mph SSW16.1 kmh SSW 13.0 mph20.9 kmh 30.43 in1030.5 mb 0.00 in0.0 mm 0.00 in0.0 mm 0.00 in0.0 mm
06:03 AM 32.9°F0.5°C 26.5°F-3.1°C 77% 11.0 mph S17.7 kmh S 13.0 mph20.9 kmh 30.43 in1030.5 mb 0.00 in0.0 mm 0.00 in0.0 mm 0.00 in0.0 mm
06:02 AM 32.6°F0.3°C 26.2°F-3.2°C 77% 7.0 mph SSW11.3 kmh SSW 13.0 mph20.9 kmh 30.43 in1030.5 mb 0.00 in0.0 mm 0.00 in0.0 mm 0.00 in0.0 mm
06:01 AM 32.4°F0.2°C 26.0°F-3.3°C 77% 13.0 mph SW20.9 kmh SW 13.0 mph20.9 kmh 30.42 in1030.1 mb 0.00 in0.0 mm 0.00 in0.0 mm 0.00 in0.0 mm
06:00 AM 32.3°F0.2°C 25.6°F-3.6°C 76% 4.0 mph SW6.4 kmh SW 13.0 mph20.9 kmh 30.42 in1030.1 mb 0.00 in0.0 mm 0.00 in0.0 mm 0.00 in0.0 mm
05:59 AM 32.3°F0.2°C 25.6°F-3.6°C 76% 2.0 mph SSW3.2 kmh SSW 13.0 mph20.9 kmh 30.43 in1030.5 mb 0.00 in0.0 mm 0.00 in0.0 mm 0.00 in0.0 mm
05:58 AM 32.3°F0.2°C 25.6°F-3.6°C 76% 4.0 mph SSW6.4 kmh SSW 13.0 mph20.9 kmh 30.43 in1030.5 mb 0.00 in0.0 mm 0.00 in0.0 mm 0.00 in0.0 mm
05:57 AM 32.1°F0.1°C 25.7°F-3.5°C 77% Calm Calm 13.0 mph20.9 kmh 30.43 in1030.5 mb 0.00 in0.0 mm 0.00 in0.0 mm 0.00 in0.0 mm
05:56 AM 31.9°F-0.1°C 25.5°F-3.6°C 77% 4.0 mph W6.4 kmh W 13.0 mph20.9 kmh 30.43 in1030.5 mb 0.00 in0.0 mm 0.00 in0.0 mm 0.00 in0.0 mm
05:55 AM 31.6°F-0.2°C 25.5°F-3.6°C 78% 8.0 mph S12.9 kmh S 13.0 mph20.9 kmh 30.42 in1030.1 mb 0.00 in0.0 mm 0.00 in0.0 mm 0.00 in0.0 mm
05:54 AM 31.4°F-0.3°C 25.0°F-3.9°C 77% 4.0 mph S6.4 kmh S 10.0 mph16.1 kmh 30.43 in1030.5 mb 0.00 in0.0 mm 0.00 in0.0 mm 0.00 in0.0 mm
05:53 AM 31.4°F-0.3°C 24.7°F-4.1°C 76% 8.0 mph NNW12.9 kmh NNW 10.0 mph16.1 kmh 30.43 in1030.5 mb 0.00 in0.0 mm 0.00 in0.0 mm 0.00 in0.0 mm
05:52 AM 31.5°F-0.3°C 24.8°F-4.0°C 76% 6.0 mph W9.7 kmh W 6.0 mph9.7 kmh 30.43 in1030.5 mb 0.00 in0.0 mm 0.00 in0.0 mm 0.00 in0.0 mm
05:51 AM 31.6°F-0.2°C 24.9°F-3.9°C 76% Calm Calm 5.0 mph8.0 kmh 30.43 in1030.5 mb 0.00 in0.0 mm 0.00 in0.0 mm 0.00 in0.0 mm
05:50 AM 31.7°F-0.2°C 25.0°F-3.9°C 76% Calm Calm 5.0 mph8.0 kmh 30.43 in1030.5 mb 0.00 in0.0 mm 0.00 in0.0 mm 0.00 in0.0 mm
05:49 AM 31.7°F-0.2°C 24.7°F-4.1°C 75% 2.0 mph W3.2 kmh W 5.0 mph8.0 kmh 30.42 in1030.1 mb 0.00 in0.0 mm 0.00 in0.0 mm 0.00 in0.0 mm
05:48 AM 31.8°F-0.1°C 24.8°F-4.0°C 75% 2.0 mph W3.2 kmh W 5.0 mph8.0 kmh 30.43 in1030.5 mb 0.00 in0.0 mm 0.00 in0.0 mm 0.00 in0.0 mm
05:47 AM 32.1°F0.1°C 24.8°F-4.0°C 74% 3.0 mph W4.8 kmh W 3.0 mph4.8 kmh 30.43 in1030.5 mb 0.00 in0.0 mm 0.00 in0.0 mm 0.00 in0.0 mm
05:46 AM 32.1°F0.1°C 24.8°F-4.0°C 74% Calm Calm -- 30.43 in1030.5 mb 0.00 in0.0 mm 0.00 in0.0 mm 0.00 in0.0 mm
05:45 AM 32.2°F0.1°C 24.9°F-3.9°C 74% Calm Calm 5.0 mph8.0 kmh 30.43 in1030.5 mb 0.00 in0.0 mm 0.00 in0.0 mm 0.00 in0.0 mm
05:44 AM 32.4°F0.2°C 25.1°F-3.8°C 74% Calm Calm 16.0 mph25.7 kmh 30.43 in1030.5 mb 0.00 in0.0 mm 0.00 in0.0 mm 0.00 in0.0 mm
05:43 AM 32.6°F0.3°C 24.9°F-3.9°C 73% 2.0 mph NW3.2 kmh NW 16.0 mph25.7 kmh 30.43 in1030.5 mb 0.00 in0.0 mm 0.00 in0.0 mm 0.00 in0.0 mm
05:42 AM 32.9°F0.5°C 24.9°F-3.9°C 72% 3.0 mph NW4.8 kmh NW 16.0 mph25.7 kmh 30.43 in1030.5 mb 0.00 in0.0 mm 0.00 in0.0 mm 0.00 in0.0 mm
05:41 AM 33.1°F0.6°C 25.1°F-3.8°C 72% Calm Calm 16.0 mph25.7 kmh 30.43 in1030.5 mb 0.00 in0.0 mm 0.00 in0.0 mm 0.00 in0.0 mm
05:40 AM 33.2°F0.7°C 25.2°F-3.8°C 72% Calm Calm 16.0 mph25.7 kmh 30.42 in1030.1 mb 0.00 in0.0 mm 0.00 in0.0 mm 0.00 in0.0 mm
05:39 AM 33.5°F0.8°C 25.1°F-3.8°C 71% Calm Calm 16.0 mph25.7 kmh 30.42 in1030.1 mb 0.00 in0.0 mm 0.00 in0.0 mm 0.00 in0.0 mm
05:38 AM 33.8°F1.0°C 25.4°F-3.7°C 71% 3.0 mph NW4.8 kmh NW 16.0 mph25.7 kmh 30.43 in1030.5 mb 0.00 in0.0 mm 0.00 in0.0 mm 0.00 in0.0 mm
05:37 AM 34.2°F1.2°C 25.5°F-3.6°C 70% 1.0 mph NW1.6 kmh NW 16.0 mph25.7 kmh 30.43 in1030.5 mb 0.00 in0.0 mm 0.00 in0.0 mm 0.00 in0.0 mm
05:36 AM 34.7°F1.5°C 25.2°F-3.8°C 68% 3.0 mph NW4.8 kmh NW 16.0 mph25.7 kmh 30.43 in1030.5 mb 0.00 in0.0 mm 0.00 in0.0 mm 0.00 in0.0 mm
05:35 AM 35.2°F1.8°C 25.4°F-3.7°C 67% 5.0 mph NW8.0 kmh NW 16.0 mph25.7 kmh 30.43 in1030.5 mb 0.00 in0.0 mm 0.00 in0.0 mm 0.00 in0.0 mm
05:34 AM 35.5°F1.9°C 25.6°F-3.6°C 67% 4.0 mph NW6.4 kmh NW 16.0 mph25.7 kmh 30.42 in1030.1 mb 0.00 in0.0 mm 0.00 in0.0 mm 0.00 in0.0 mm
05:33 AM 35.7°F2.1°C 25.8°F-3.4°C 67% 5.0 mph NE8.0 kmh NE 16.0 mph25.7 kmh 30.42 in1030.1 mb 0.00 in0.0 mm 0.00 in0.0 mm 0.00 in0.0 mm
05:32 AM 35.8°F2.1°C 25.6°F-3.6°C 66% 5.0 mph WSW8.0 kmh WSW 16.0 mph25.7 kmh 30.42 in1030.1 mb 0.00 in0.0 mm 0.00 in0.0 mm 0.00 in0.0 mm
05:31 AM 35.9°F2.2°C 26.0°F-3.3°C 67% 5.0 mph SW8.0 kmh SW 16.0 mph25.7 kmh 30.42 in1030.1 mb 0.00 in0.0 mm 0.00 in0.0 mm 0.00 in0.0 mm
05:30 AM 35.9°F2.2°C 25.7°F-3.5°C 66% 7.0 mph SSW11.3 kmh SSW 16.0 mph25.7 kmh 30.42 in1030.1 mb 0.00 in0.0 mm 0.00 in0.0 mm 0.00 in0.0 mm
05:29 AM 35.9°F2.2°C 25.7°F-3.5°C 66% 2.0 mph SSW3.2 kmh SSW 16.0 mph25.7 kmh 30.42 in1030.1 mb 0.00 in0.0 mm 0.00 in0.0 mm 0.00 in0.0 mm
05:28 AM 35.8°F2.1°C 25.9°F-3.4°C 67% 6.0 mph SW9.7 kmh SW 16.0 mph25.7 kmh 30.42 in1030.1 mb 0.00 in0.0 mm 0.00 in0.0 mm 0.00 in0.0 mm
05:27 AM 35.7°F2.1°C 25.8°F-3.4°C 67% 7.0 mph SSW11.3 kmh SSW 16.0 mph25.7 kmh 30.42 in1030.1 mb 0.00 in0.0 mm 0.00 in0.0 mm 0.00 in0.0 mm
05:26 AM 35.6°F2.0°C 25.7°F-3.5°C 67% 11.0 mph SSW17.7 kmh SSW 16.0 mph25.7 kmh 30.41 in1029.8 mb 0.00 in0.0 mm 0.00 in0.0 mm 0.00 in0.0 mm
05:25 AM 35.5°F1.9°C 25.6°F-3.6°C 67% 11.0 mph SSW17.7 kmh SSW 16.0 mph25.7 kmh 30.41 in1029.8 mb 0.00 in0.0 mm 0.00 in0.0 mm 0.00 in0.0 mm
05:24 AM 35.4°F1.9°C 25.9°F-3.4°C 68% 6.0 mph SSW9.7 kmh SSW 19.0 mph30.6 kmh 30.41 in1029.8 mb 0.00 in0.0 mm 0.00 in0.0 mm 0.00 in0.0 mm
05:23 AM 35.3°F1.8°C 26.2°F-3.2°C 69% 7.0 mph SSW11.3 kmh SSW 19.0 mph30.6 kmh 30.41 in1029.8 mb 0.00 in0.0 mm 0.00 in0.0 mm 0.00 in0.0 mm
05:22 AM 35.2°F1.8°C 26.4°F-3.1°C 70% 7.0 mph SW11.3 kmh SW 19.0 mph30.6 kmh 30.41 in1029.8 mb 0.00 in0.0 mm 0.00 in0.0 mm 0.00 in0.0 mm
05:21 AM 35.2°F1.8°C 26.4°F-3.1°C 70% 9.0 mph S14.5 kmh S 19.0 mph30.6 kmh 30.41 in1029.8 mb 0.00 in0.0 mm 0.00 in0.0 mm 0.00 in0.0 mm
05:20 AM 35.2°F1.8°C 26.4°F-3.1°C 70% 5.0 mph SW8.0 kmh SW 19.0 mph30.6 kmh 30.42 in1030.1 mb 0.00 in0.0 mm 0.00 in0.0 mm 0.00 in0.0 mm
05:19 AM 35.1°F1.7°C 26.7°F-2.9°C 71% 9.0 mph SSW14.5 kmh SSW 19.0 mph30.6 kmh 30.41 in1029.8 mb 0.00 in0.0 mm 0.00 in0.0 mm 0.00 in0.0 mm
05:18 AM 35.1°F1.7°C 26.7°F-2.9°C 71% 7.0 mph SSW11.3 kmh SSW 19.0 mph30.6 kmh 30.41 in1029.8 mb 0.00 in0.0 mm 0.00 in0.0 mm 0.00 in0.0 mm
05:17 AM 35.1°F1.7°C 26.7°F-2.9°C 71% 10.0 mph SSW16.1 kmh SSW 19.0 mph30.6 kmh 30.41 in1029.8 mb 0.00 in0.0 mm 0.00 in0.0 mm 0.00 in0.0 mm
05:16 AM 35.0°F1.7°C 26.2°F-3.2°C 70% 8.0 mph SSW12.9 kmh SSW 19.0 mph30.6 kmh 30.42 in1030.1 mb 0.00 in0.0 mm 0.00 in0.0 mm 0.00 in0.0 mm
05:15 AM 35.0°F1.7°C 26.6°F-3.0°C 71% 8.0 mph SW12.9 kmh SW 19.0 mph30.6 kmh 30.42 in1030.1 mb 0.00 in0.0 mm 0.00 in0.0 mm 0.00 in0.0 mm
05:14 AM 34.8°F1.6°C 26.4°F-3.1°C 71% 13.0 mph SW20.9 kmh SW 22.0 mph35.4 kmh 30.42 in1030.1 mb 0.00 in0.0 mm 0.00 in0.0 mm 0.00 in0.0 mm
05:13 AM 34.8°F1.6°C 27.0°F-2.8°C 73% 9.0 mph S14.5 kmh S 22.0 mph35.4 kmh 30.42 in1030.1 mb 0.00 in0.0 mm 0.00 in0.0 mm 0.00 in0.0 mm
05:12 AM 34.9°F1.6°C 27.1°F-2.7°C 73% 13.0 mph SSW20.9 kmh SSW 22.0 mph35.4 kmh 30.42 in1030.1 mb 0.00 in0.0 mm 0.00 in0.0 mm 0.00 in0.0 mm
05:11 AM 34.9°F1.6°C 27.1°F-2.7°C 73% 9.0 mph SW14.5 kmh SW 22.0 mph35.4 kmh 30.42 in1030.1 mb 0.00 in0.0 mm 0.00 in0.0 mm 0.00 in0.0 mm
05:10 AM 35.0°F1.7°C 27.2°F-2.7°C 73% 12.0 mph SSW19.3 kmh SSW 22.0 mph35.4 kmh 30.42 in1030.1 mb 0.00 in0.0 mm 0.00 in0.0 mm 0.00 in0.0 mm
05:09 AM 35.1°F1.7°C 27.0°F-2.8°C 72% 11.0 mph S17.7 kmh S 22.0 mph35.4 kmh 30.42 in1030.1 mb 0.00 in0.0 mm 0.00 in0.0 mm 0.00 in0.0 mm
05:08 AM 35.1°F1.7°C 27.0°F-2.8°C 72% 11.0 mph S17.7 kmh S 22.0 mph35.4 kmh 30.42 in1030.1 mb 0.00 in0.0 mm 0.00 in0.0 mm 0.00 in0.0 mm
05:07 AM 35.1°F1.7°C 27.0°F-2.8°C 72% 11.0 mph SSW17.7 kmh SSW 22.0 mph35.4 kmh 30.42 in1030.1 mb 0.00 in0.0 mm 0.00 in0.0 mm 0.00 in0.0 mm
05:06 AM 35.1°F1.7°C 27.0°F-2.8°C 72% 10.0 mph SW16.1 kmh SW 22.0 mph35.4 kmh 30.42 in1030.1 mb 0.00 in0.0 mm 0.00 in0.0 mm 0.00 in0.0 mm
05:05 AM 35.1°F1.7°C 27.0°F-2.8°C 72% 11.0 mph SW17.7 kmh SW 22.0 mph35.4 kmh 30.42 in1030.1 mb 0.00 in0.0 mm 0.00 in0.0 mm 0.00 in0.0 mm
05:04 AM 35.0°F1.7°C 26.9°F-2.8°C 72% 11.0 mph SSW17.7 kmh SSW 22.0 mph35.4 kmh 30.42 in1030.1 mb 0.00 in0.0 mm 0.00 in0.0 mm 0.00 in0.0 mm
05:03 AM 34.9°F1.6°C 27.1°F-2.7°C 73% 10.0 mph S16.1 kmh S 22.0 mph35.4 kmh 30.42 in1030.1 mb 0.00 in0.0 mm 0.00 in0.0 mm 0.00 in0.0 mm
05:02 AM 34.8°F1.6°C 27.0°F-2.8°C 73% 8.0 mph SW12.9 kmh SW 22.0 mph35.4 kmh 30.42 in1030.1 mb 0.00 in0.0 mm 0.00 in0.0 mm 0.00 in0.0 mm
05:01 AM 34.8°F1.6°C 27.4°F-2.6°C 74% 9.0 mph SW14.5 kmh SW 22.0 mph35.4 kmh 30.42 in1030.1 mb 0.00 in0.0 mm 0.00 in0.0 mm 0.00 in0.0 mm
05:00 AM 34.8°F1.6°C 27.7°F-2.4°C 75% 11.0 mph SW17.7 kmh SW 22.0 mph35.4 kmh 30.42 in1030.1 mb 0.00 in0.0 mm 0.00 in0.0 mm 0.00 in0.0 mm
04:59 AM 34.8°F1.6°C 27.7°F-2.4°C 75% 9.0 mph SW14.5 kmh SW 22.0 mph35.4 kmh 30.42 in1030.1 mb 0.00 in0.0 mm 0.00 in0.0 mm 0.00 in0.0 mm
04:58 AM 34.9°F1.6°C 27.8°F-2.3°C 75% 10.0 mph S16.1 kmh S 22.0 mph35.4 kmh 30.42 in1030.1 mb 0.00 in0.0 mm 0.00 in0.0 mm 0.00 in0.0 mm
04:57 AM 34.9°F1.6°C 27.5°F-2.5°C 74% 7.0 mph S11.3 kmh S 22.0 mph35.4 kmh 30.42 in1030.1 mb 0.00 in0.0 mm 0.00 in0.0 mm 0.00 in0.0 mm
04:56 AM 34.8°F1.6°C 27.4°F-2.6°C 74% 6.0 mph SW9.7 kmh SW 22.0 mph35.4 kmh 30.42 in1030.1 mb 0.00 in0.0 mm 0.00 in0.0 mm 0.00 in0.0 mm
04:55 AM 34.8°F1.6°C 28.0°F-2.2°C 76% 8.0 mph S12.9 kmh S 22.0 mph35.4 kmh 30.43 in1030.5 mb 0.00 in0.0 mm 0.00 in0.0 mm 0.00 in0.0 mm
04:54 AM 34.7°F1.5°C 27.9°F-2.3°C 76% 17.0 mph SSW27.4 kmh SSW 19.0 mph30.6 kmh 30.42 in1030.1 mb 0.00 in0.0 mm 0.00 in0.0 mm 0.00 in0.0 mm
04:53 AM 34.7°F1.5°C 27.9°F-2.3°C 76% 12.0 mph SW19.3 kmh SW 19.0 mph30.6 kmh 30.42 in1030.1 mb 0.00 in0.0 mm 0.00 in0.0 mm 0.00 in0.0 mm
04:52 AM 34.7°F1.5°C 27.9°F-2.3°C 76% 10.0 mph SSW16.1 kmh SSW 19.0 mph30.6 kmh 30.42 in1030.1 mb 0.00 in0.0 mm 0.00 in0.0 mm 0.00 in0.0 mm
04:51 AM 34.7°F1.5°C 27.6°F-2.4°C 75% 7.0 mph SW11.3 kmh SW 19.0 mph30.6 kmh 30.42 in1030.1 mb 0.00 in0.0 mm 0.00 in0.0 mm 0.00 in0.0 mm
04:50 AM 34.6°F1.4°C 27.8°F-2.3°C 76% 7.0 mph SW11.3 kmh SW 19.0 mph30.6 kmh 30.42 in1030.1 mb 0.00 in0.0 mm 0.00 in0.0 mm 0.00 in0.0 mm
04:49 AM 34.6°F1.4°C 28.1°F-2.2°C 77% 14.0 mph S22.5 kmh S 19.0 mph30.6 kmh 30.42 in1030.1 mb 0.00 in0.0 mm 0.00 in0.0 mm 0.00 in0.0 mm
04:48 AM 34.6°F1.4°C 28.1°F-2.2°C 77% 9.0 mph SSW14.5 kmh SSW 19.0 mph30.6 kmh 30.43 in1030.5 mb 0.00 in0.0 mm 0.00 in0.0 mm 0.00 in0.0 mm
04:47 AM 34.7°F1.5°C 28.2°F-2.1°C 77% 6.0 mph SW9.7 kmh SW 19.0 mph30.6 kmh 30.43 in1030.5 mb 0.00 in0.0 mm 0.00 in0.0 mm 0.00 in0.0 mm
04:46 AM 34.6°F1.4°C 28.1°F-2.2°C 77% 9.0 mph SSW14.5 kmh SSW 19.0 mph30.6 kmh 30.43 in1030.5 mb 0.00 in0.0 mm 0.00 in0.0 mm 0.00 in0.0 mm
04:45 AM 34.6°F1.4°C 28.1°F-2.2°C 77% 13.0 mph SSW20.9 kmh SSW 19.0 mph30.6 kmh 30.42 in1030.1 mb 0.00 in0.0 mm 0.00 in0.0 mm 0.00 in0.0 mm
04:44 AM 34.6°F1.4°C 28.5°F-1.9°C 78% 13.0 mph SSW20.9 kmh SSW 18.0 mph29.0 kmh 30.42 in1030.1 mb 0.00 in0.0 mm 0.00 in0.0 mm 0.00 in0.0 mm
04:43 AM 34.6°F1.4°C 28.1°F-2.2°C 77% 6.0 mph SW9.7 kmh SW 17.0 mph27.4 kmh 30.43 in1030.5 mb 0.00 in0.0 mm 0.00 in0.0 mm 0.00 in0.0 mm
04:42 AM 34.6°F1.4°C 28.1°F-2.2°C 77% 10.0 mph SW16.1 kmh SW 17.0 mph27.4 kmh 30.43 in1030.5 mb 0.00 in0.0 mm 0.00 in0.0 mm 0.00 in0.0 mm
04:41 AM 34.6°F1.4°C 28.1°F-2.2°C 77% 4.0 mph SW6.4 kmh SW 17.0 mph27.4 kmh 30.43 in1030.5 mb 0.00 in0.0 mm 0.00 in0.0 mm 0.00 in0.0 mm
04:40 AM 34.6°F1.4°C 28.5°F-1.9°C 78% 6.0 mph SSW9.7 kmh SSW 22.0 mph35.4 kmh 30.43 in1030.5 mb 0.00 in0.0 mm 0.00 in0.0 mm 0.00 in0.0 mm
04:39 AM 34.6°F1.4°C 28.5°F-1.9°C 78% 4.0 mph SSW6.4 kmh SSW 22.0 mph35.4 kmh 30.43 in1030.5 mb 0.00 in0.0 mm 0.00 in0.0 mm 0.00 in0.0 mm
04:38 AM 34.6°F1.4°C 28.5°F-1.9°C 78% 13.0 mph SW20.9 kmh SW 22.0 mph35.4 kmh 30.43 in1030.5 mb 0.00 in0.0 mm 0.00 in0.0 mm 0.00 in0.0 mm
04:37 AM 34.7°F1.5°C 28.6°F-1.9°C 78% 5.0 mph SSW8.0 kmh SSW 22.0 mph35.4 kmh 30.42 in1030.1 mb 0.00 in0.0 mm 0.00 in0.0 mm 0.00 in0.0 mm
04:36 AM 34.7°F1.5°C 28.6°F-1.9°C 78% 9.0 mph SSW14.5 kmh SSW 22.0 mph35.4 kmh 30.42 in1030.1 mb 0.00 in0.0 mm 0.00 in0.0 mm 0.00 in0.0 mm
04:35 AM 34.7°F1.5°C 28.2°F-2.1°C 77% 13.0 mph S20.9 kmh S 22.0 mph35.4 kmh 30.42 in1030.1 mb 0.00 in0.0 mm 0.00 in0.0 mm 0.00 in0.0 mm
04:34 AM 34.7°F1.5°C 28.2°F-2.1°C 77% 11.0 mph S17.7 kmh S 22.0 mph35.4 kmh 30.43 in1030.5 mb 0.00 in0.0 mm 0.00 in0.0 mm 0.00 in0.0 mm
04:33 AM 34.8°F1.6°C 28.3°F-2.1°C 77% 6.0 mph SW9.7 kmh SW 22.0 mph35.4 kmh 30.42 in1030.1 mb 0.00 in0.0 mm 0.00 in0.0 mm 0.00 in0.0 mm
04:32 AM 34.8°F1.6°C 28.3°F-2.1°C 77% 8.0 mph SW12.9 kmh SW 22.0 mph35.4 kmh 30.42 in1030.1 mb 0.00 in0.0 mm 0.00 in0.0 mm 0.00 in0.0 mm
04:31 AM 34.8°F1.6°C 28.3°F-2.1°C 77% 12.0 mph SSW19.3 kmh SSW 22.0 mph35.4 kmh 30.42 in1030.1 mb 0.00 in0.0 mm 0.00 in0.0 mm 0.00 in0.0 mm
04:30 AM 34.8°F1.6°C 28.0°F-2.2°C 76% 12.0 mph S19.3 kmh S 27.0 mph43.5 kmh 30.42 in1030.1 mb 0.00 in0.0 mm 0.00 in0.0 mm 0.00 in0.0 mm
04:29 AM 34.8°F1.6°C 28.3°F-2.1°C 77% 10.0 mph SW16.1 kmh SW 27.0 mph43.5 kmh 30.42 in1030.1 mb 0.00 in0.0 mm 0.00 in0.0 mm 0.00 in0.0 mm
04:28 AM 34.8°F1.6°C 28.0°F-2.2°C 76% 17.0 mph SW27.4 kmh SW 27.0 mph43.5 kmh 30.42 in1030.1 mb 0.00 in0.0 mm 0.00 in0.0 mm 0.00 in0.0 mm
04:27 AM 34.8°F1.6°C 28.3°F-2.1°C 77% 19.0 mph SW30.6 kmh SW 27.0 mph43.5 kmh 30.42 in1030.1 mb 0.00 in0.0 mm 0.00 in0.0 mm 0.00 in0.0 mm
04:26 AM 34.8°F1.6°C 28.0°F-2.2°C 76% 9.0 mph S14.5 kmh S 27.0 mph43.5 kmh 30.42 in1030.1 mb 0.00 in0.0 mm 0.00 in0.0 mm 0.00 in0.0 mm
04:25 AM 34.8°F1.6°C 28.0°F-2.2°C 76% 7.0 mph SSW11.3 kmh SSW 27.0 mph43.5 kmh 30.42 in1030.1 mb 0.00 in0.0 mm 0.00 in0.0 mm 0.00 in0.0 mm
04:24 AM 34.8°F1.6°C 28.3°F-2.1°C 77% 4.0 mph SSE6.4 kmh SSE 27.0 mph43.5 kmh 30.42 in1030.1 mb 0.00 in0.0 mm 0.00 in0.0 mm 0.00 in0.0 mm
04:23 AM 34.9°F1.6°C 28.1°F-2.2°C 76% 8.0 mph SW12.9 kmh SW 27.0 mph43.5 kmh 30.42 in1030.1 mb 0.00 in0.0 mm 0.00 in0.0 mm 0.00 in0.0 mm
04:22 AM 34.9°F1.6°C 28.1°F-2.2°C 76% 13.0 mph S20.9 kmh S 27.0 mph43.5 kmh 30.41 in1029.8 mb 0.00 in0.0 mm 0.00 in0.0 mm 0.00 in0.0 mm
04:21 AM 34.9°F1.6°C 28.1°F-2.2°C 76% 9.0 mph SSW14.5 kmh SSW 27.0 mph43.5 kmh 30.42 in1030.1 mb 0.00 in0.0 mm 0.00 in0.0 mm 0.00 in0.0 mm
04:20 AM 35.0°F1.7°C 27.9°F-2.3°C 75% 6.0 mph S9.7 kmh S 31.0 mph49.9 kmh 30.41 in1029.8 mb 0.00 in0.0 mm 0.00 in0.0 mm 0.00 in0.0 mm
04:19 AM 35.0°F1.7°C 28.2°F-2.1°C 76% 9.0 mph SW14.5 kmh SW 31.0 mph49.9 kmh 30.42 in1030.1 mb 0.00 in0.0 mm 0.00 in0.0 mm 0.00 in0.0 mm
04:18 AM 35.0°F1.7°C 28.2°F-2.1°C 76% 2.0 mph S3.2 kmh S 31.0 mph49.9 kmh 30.41 in1029.8 mb 0.00 in0.0 mm 0.00 in0.0 mm 0.00 in0.0 mm
04:17 AM 35.0°F1.7°C 28.2°F-2.1°C 76% 4.0 mph SSW6.4 kmh SSW 31.0 mph49.9 kmh 30.42 in1030.1 mb 0.00 in0.0 mm 0.00 in0.0 mm 0.00 in0.0 mm
04:16 AM 34.9°F1.6°C 28.1°F-2.2°C 76% 6.0 mph S9.7 kmh S 31.0 mph49.9 kmh 30.41 in1029.8 mb 0.00 in0.0 mm 0.00 in0.0 mm 0.00 in0.0 mm
04:15 AM 34.9°F1.6°C 28.1°F-2.2°C 76% 9.0 mph S14.5 kmh S 31.0 mph49.9 kmh 30.41 in1029.8 mb 0.00 in0.0 mm 0.00 in0.0 mm 0.00 in0.0 mm
04:14 AM 34.9°F1.6°C 28.1°F-2.2°C 76% 9.0 mph S14.5 kmh S 31.0 mph49.9 kmh 30.41 in1029.8 mb 0.00 in0.0 mm 0.00 in0.0 mm 0.00 in0.0 mm
04:13 AM 34.9°F1.6°C 28.1°F-2.2°C 76% 11.0 mph S17.7 kmh S 31.0 mph49.9 kmh 30.41 in1029.8 mb 0.00 in0.0 mm 0.00 in0.0 mm 0.00 in0.0 mm
04:12 AM 34.8°F1.6°C 28.0°F-2.2°C 76% 12.0 mph SSW19.3 kmh SSW 31.0 mph49.9 kmh 30.41 in1029.8 mb 0.00 in0.0 mm 0.00 in0.0 mm 0.00 in0.0 mm
04:11 AM 34.8°F1.6°C 28.0°F-2.2°C 76% 15.0 mph S24.1 kmh S 31.0 mph49.9 kmh 30.40 in1029.5 mb 0.00 in0.0 mm 0.00 in0.0 mm 0.00 in0.0 mm
04:10 AM 34.7°F1.5°C 28.2°F-2.1°C 77% 17.0 mph SSW27.4 kmh SSW 31.0 mph49.9 kmh 30.40 in1029.5 mb 0.00 in0.0 mm 0.00 in0.0 mm 0.00 in0.0 mm
04:09 AM 34.7°F1.5°C 28.2°F-2.1°C 77% 15.0 mph SSW24.1 kmh SSW 31.0 mph49.9 kmh 30.40 in1029.5 mb 0.00 in0.0 mm 0.00 in0.0 mm 0.00 in0.0 mm
04:08 AM 34.7°F1.5°C 27.9°F-2.3°C 76% 11.0 mph S17.7 kmh S 31.0 mph49.9 kmh 30.40 in1029.5 mb 0.00 in0.0 mm 0.00 in0.0 mm 0.00 in0.0 mm
04:07 AM 34.7°F1.5°C 27.9°F-2.3°C 76% 10.0 mph SW16.1 kmh SW 31.0 mph49.9 kmh 30.40 in1029.5 mb 0.00 in0.0 mm 0.00 in0.0 mm 0.00 in0.0 mm
04:06 AM 34.7°F1.5°C 27.9°F-2.3°C 76% 11.0 mph SSW17.7 kmh SSW 31.0 mph49.9 kmh 30.40 in1029.5 mb 0.00 in0.0 mm 0.00 in0.0 mm 0.00 in0.0 mm
04:05 AM 34.7°F1.5°C 28.2°F-2.1°C 77% 3.0 mph SW4.8 kmh SW 31.0 mph49.9 kmh 30.40 in1029.5 mb 0.00 in0.0 mm 0.00 in0.0 mm 0.00 in0.0 mm
04:04 AM 34.7°F1.5°C 27.9°F-2.3°C 76% 11.0 mph SW17.7 kmh SW 31.0 mph49.9 kmh 30.40 in1029.5 mb 0.00 in0.0 mm 0.00 in0.0 mm 0.00 in0.0 mm
04:03 AM 34.8°F1.6°C 28.3°F-2.1°C 77% 8.0 mph SW12.9 kmh SW 31.0 mph49.9 kmh 30.40 in1029.5 mb 0.00 in0.0 mm 0.00 in0.0 mm 0.00 in0.0 mm
04:02 AM 34.8°F1.6°C 28.0°F-2.2°C 76% 17.0 mph SSE27.4 kmh SSE 31.0 mph49.9 kmh 30.39 in1029.1 mb 0.00 in0.0 mm 0.00 in0.0 mm 0.00 in0.0 mm
04:01 AM 34.8°F1.6°C 28.0°F-2.2°C 76% 18.0 mph SW29.0 kmh SW 31.0 mph49.9 kmh 30.39 in1029.1 mb 0.00 in0.0 mm 0.00 in0.0 mm 0.00 in0.0 mm
04:00 AM 34.9°F1.6°C 28.1°F-2.2°C 76% 8.0 mph S12.9 kmh S 30.0 mph48.3 kmh 30.39 in1029.1 mb 0.00 in0.0 mm 0.00 in0.0 mm 0.00 in0.0 mm
03:59 AM 34.9°F1.6°C 27.8°F-2.3°C 75% 3.0 mph SW4.8 kmh SW 30.0 mph48.3 kmh 30.40 in1029.5 mb 0.00 in0.0 mm 0.00 in0.0 mm 0.00 in0.0 mm
03:58 AM 34.9°F1.6°C 27.8°F-2.3°C 75% 9.0 mph SSE14.5 kmh SSE 30.0 mph48.3 kmh 30.39 in1029.1 mb 0.00 in0.0 mm 0.00 in0.0 mm 0.00 in0.0 mm
03:57 AM 34.9°F1.6°C 28.1°F-2.2°C 76% 8.0 mph SW12.9 kmh SW 33.0 mph53.1 kmh 30.39 in1029.1 mb 0.00 in0.0 mm 0.00 in0.0 mm 0.00 in0.0 mm
03:56 AM 34.9°F1.6°C 28.1°F-2.2°C 76% 13.0 mph WSW20.9 kmh WSW 33.0 mph53.1 kmh 30.39 in1029.1 mb 0.00 in0.0 mm 0.00 in0.0 mm 0.00 in0.0 mm
03:55 AM 35.0°F1.7°C 28.2°F-2.1°C 76% 8.0 mph S12.9 kmh S 33.0 mph53.1 kmh 30.39 in1029.1 mb 0.00 in0.0 mm 0.00 in0.0 mm 0.00 in0.0 mm
03:54 AM 35.0°F1.7°C 27.9°F-2.3°C 75% 19.0 mph SSW30.6 kmh SSW 33.0 mph53.1 kmh 30.38 in1028.8 mb 0.00 in0.0 mm 0.00 in0.0 mm 0.00 in0.0 mm
03:53 AM 35.0°F1.7°C 27.9°F-2.3°C 75% 16.0 mph SW25.7 kmh SW 33.0 mph53.1 kmh 30.38 in1028.8 mb 0.00 in0.0 mm 0.00 in0.0 mm 0.00 in0.0 mm
03:52 AM 34.9°F1.6°C 27.8°F-2.3°C 75% 14.0 mph SW22.5 kmh SW 33.0 mph53.1 kmh 30.38 in1028.8 mb 0.00 in0.0 mm 0.00 in0.0 mm 0.00 in0.0 mm
03:51 AM 34.9°F1.6°C 27.8°F-2.3°C 75% 16.0 mph S25.7 kmh S 33.0 mph53.1 kmh 30.39 in1029.1 mb 0.00 in0.0 mm 0.00 in0.0 mm 0.00 in0.0 mm
03:50 AM 34.9°F1.6°C 27.8°F-2.3°C 75% 5.0 mph S8.0 kmh S 33.0 mph53.1 kmh 30.39 in1029.1 mb 0.00 in0.0 mm 0.00 in0.0 mm 0.00 in0.0 mm
03:49 AM 34.8°F1.6°C 27.7°F-2.4°C 75% 23.0 mph SSW37.0 kmh SSW 33.0 mph53.1 kmh 30.38 in1028.8 mb 0.00 in0.0 mm 0.00 in0.0 mm 0.00 in0.0 mm
03:48 AM 34.8°F1.6°C 28.0°F-2.2°C 76% 16.0 mph S25.7 kmh S 33.0 mph53.1 kmh 30.38 in1028.8 mb 0.00 in0.0 mm 0.00 in0.0 mm 0.00 in0.0 mm
03:47 AM 34.8°F1.6°C 28.0°F-2.2°C 76% 7.0 mph SW11.3 kmh SW 33.0 mph53.1 kmh 30.38 in1028.8 mb 0.00 in0.0 mm 0.00 in0.0 mm 0.00 in0.0 mm
03:46 AM 34.8°F1.6°C 28.0°F-2.2°C 76% 13.0 mph SW20.9 kmh SW 33.0 mph53.1 kmh 30.38 in1028.8 mb 0.00 in0.0 mm 0.00 in0.0 mm 0.00 in0.0 mm
03:45 AM 34.8°F1.6°C 28.0°F-2.2°C 76% 19.0 mph SSW30.6 kmh SSW 33.0 mph53.1 kmh 30.38 in1028.8 mb 0.00 in0.0 mm 0.00 in0.0 mm 0.00 in0.0 mm
03:44 AM 34.8°F1.6°C 28.0°F-2.2°C 76% 14.0 mph S22.5 kmh S 33.0 mph53.1 kmh 30.38 in1028.8 mb 0.00 in0.0 mm 0.00 in0.0 mm 0.00 in0.0 mm
03:43 AM 34.8°F1.6°C 28.0°F-2.2°C 76% 10.0 mph SW16.1 kmh SW 33.0 mph53.1 kmh 30.37 in1028.4 mb 0.00 in0.0 mm 0.00 in0.0 mm 0.00 in0.0 mm
03:42 AM 34.8°F1.6°C 28.0°F-2.2°C 76% 16.0 mph SSW25.7 kmh SSW 33.0 mph53.1 kmh 30.37 in1028.4 mb 0.00 in0.0 mm 0.00 in0.0 mm 0.00 in0.0 mm
03:41 AM 34.8°F1.6°C 27.7°F-2.4°C 75% 18.0 mph S29.0 kmh S 33.0 mph53.1 kmh 30.38 in1028.8 mb 0.00 in0.0 mm 0.00 in0.0 mm 0.00 in0.0 mm
03:40 AM 34.8°F1.6°C 27.7°F-2.4°C 75% 11.0 mph SW17.7 kmh SW 33.0 mph53.1 kmh 30.38 in1028.8 mb 0.00 in0.0 mm 0.00 in0.0 mm 0.00 in0.0 mm
03:39 AM 34.8°F1.6°C 28.0°F-2.2°C 76% 17.0 mph SSW27.4 kmh SSW 33.0 mph53.1 kmh 30.38 in1028.8 mb 0.00 in0.0 mm 0.00 in0.0 mm 0.00 in0.0 mm
03:38 AM 34.8°F1.6°C 27.7°F-2.4°C 75% 9.0 mph S14.5 kmh S 33.0 mph53.1 kmh 30.38 in1028.8 mb 0.00 in0.0 mm 0.00 in0.0 mm 0.00 in0.0 mm
03:37 AM 34.9°F1.6°C 27.8°F-2.3°C 75% 12.0 mph SSW19.3 kmh SSW 36.0 mph57.9 kmh 30.38 in1028.8 mb 0.00 in0.0 mm 0.00 in0.0 mm 0.00 in0.0 mm
03:36 AM 34.9°F1.6°C 27.8°F-2.3°C 75% 4.0 mph SW6.4 kmh SW 36.0 mph57.9 kmh 30.38 in1028.8 mb 0.00 in0.0 mm 0.00 in0.0 mm 0.00 in0.0 mm
03:35 AM 34.8°F1.6°C 27.7°F-2.4°C 75% 9.0 mph SW14.5 kmh SW 36.0 mph57.9 kmh 30.38 in1028.8 mb 0.00 in0.0 mm 0.00 in0.0 mm 0.00 in0.0 mm
03:34 AM 34.9°F1.6°C 27.8°F-2.3°C 75% 9.0 mph SSW14.5 kmh SSW 36.0 mph57.9 kmh 30.37 in1028.4 mb 0.00 in0.0 mm 0.00 in0.0 mm 0.00 in0.0 mm
03:33 AM 34.8°F1.6°C 27.7°F-2.4°C 75% 14.0 mph SW22.5 kmh SW 36.0 mph57.9 kmh 30.37 in1028.4 mb 0.00 in0.0 mm 0.00 in0.0 mm 0.00 in0.0 mm
03:32 AM 34.8°F1.6°C 27.7°F-2.4°C 75% 26.0 mph S41.8 kmh S 36.0 mph57.9 kmh 30.37 in1028.4 mb 0.00 in0.0 mm 0.00 in0.0 mm 0.00 in0.0 mm
03:31 AM 34.8°F1.6°C 27.7°F-2.4°C 75% 11.0 mph SW17.7 kmh SW 36.0 mph57.9 kmh 30.37 in1028.4 mb 0.00 in0.0 mm 0.00 in0.0 mm 0.00 in0.0 mm
03:30 AM 34.8°F1.6°C 27.7°F-2.4°C 75% 24.0 mph S38.6 kmh S 36.0 mph57.9 kmh 30.37 in1028.4 mb 0.00 in0.0 mm 0.00 in0.0 mm 0.00 in0.0 mm
03:29 AM 34.8°F1.6°C 27.7°F-2.4°C 75% 18.0 mph SSW29.0 kmh SSW 36.0 mph57.9 kmh 30.37 in1028.4 mb 0.00 in0.0 mm 0.00 in0.0 mm 0.00 in0.0 mm
03:28 AM 34.8°F1.6°C 27.7°F-2.4°C 75% 20.0 mph SW32.2 kmh SW 36.0 mph57.9 kmh 30.38 in1028.8 mb 0.00 in0.0 mm 0.00 in0.0 mm 0.00 in0.0 mm
03:27 AM 34.9°F1.6°C 27.8°F-2.3°C 75% 21.0 mph SSW33.8 kmh SSW 39.0 mph62.8 kmh 30.38 in1028.8 mb 0.00 in0.0 mm 0.00 in0.0 mm 0.00 in0.0 mm
03:26 AM 35.0°F1.7°C 27.6°F-2.4°C 74% 16.0 mph SW25.7 kmh SW 39.0 mph62.8 kmh 30.37 in1028.4 mb 0.00 in0.0 mm 0.00 in0.0 mm 0.00 in0.0 mm
03:25 AM 35.0°F1.7°C 27.6°F-2.4°C 74% 12.0 mph SW19.3 kmh SW 39.0 mph62.8 kmh 30.37 in1028.4 mb 0.00 in0.0 mm 0.00 in0.0 mm 0.00 in0.0 mm
03:24 AM 35.0°F1.7°C 27.6°F-2.4°C 74% 23.0 mph SW37.0 kmh SW 39.0 mph62.8 kmh 30.36 in1028.1 mb 0.00 in0.0 mm 0.00 in0.0 mm 0.00 in0.0 mm
03:23 AM 34.9°F1.6°C 27.5°F-2.5°C 74% 19.0 mph S30.6 kmh S 39.0 mph62.8 kmh 30.37 in1028.4 mb 0.00 in0.0 mm 0.00 in0.0 mm 0.00 in0.0 mm
03:22 AM 34.9°F1.6°C 27.8°F-2.3°C 75% 16.0 mph SSW25.7 kmh SSW 39.0 mph62.8 kmh 30.37 in1028.4 mb 0.00 in0.0 mm 0.00 in0.0 mm 0.00 in0.0 mm
03:21 AM 35.0°F1.7°C 27.6°F-2.4°C 74% 25.0 mph SSW40.2 kmh SSW 39.0 mph62.8 kmh 30.36 in1028.1 mb 0.00 in0.0 mm 0.00 in0.0 mm 0.00 in0.0 mm
03:20 AM 35.0°F1.7°C 27.6°F-2.4°C 74% 16.0 mph SSW25.7 kmh SSW 39.0 mph62.8 kmh 30.36 in1028.1 mb 0.00 in0.0 mm 0.00 in0.0 mm 0.00 in0.0 mm
03:19 AM 35.1°F1.7°C 27.7°F-2.4°C 74% 20.0 mph S32.2 kmh S 39.0 mph62.8 kmh 30.35 in1027.8 mb 0.00 in0.0 mm 0.00 in0.0 mm 0.00 in0.0 mm
03:18 AM 35.2°F1.8°C 27.8°F-2.3°C 74% 25.0 mph SSW40.2 kmh SSW 39.0 mph62.8 kmh 30.36 in1028.1 mb 0.00 in0.0 mm 0.00 in0.0 mm 0.00 in0.0 mm
03:17 AM 35.3°F1.8°C 27.9°F-2.3°C 74% 21.0 mph SW33.8 kmh SW 39.0 mph62.8 kmh 30.36 in1028.1 mb 0.00 in0.0 mm 0.00 in0.0 mm 0.00 in0.0 mm
03:16 AM 35.3°F1.8°C 27.5°F-2.5°C 73% 16.0 mph SW25.7 kmh SW 39.0 mph62.8 kmh 30.37 in1028.4 mb 0.00 in0.0 mm 0.00 in0.0 mm 0.00 in0.0 mm
03:15 AM 35.3°F1.8°C 27.5°F-2.5°C 73% 15.0 mph SSW24.1 kmh SSW 39.0 mph62.8 kmh 30.37 in1028.4 mb 0.00 in0.0 mm 0.00 in0.0 mm 0.00 in0.0 mm
03:14 AM 35.3°F1.8°C 27.5°F-2.5°C 73% 21.0 mph SSW33.8 kmh SSW 39.0 mph62.8 kmh 30.36 in1028.1 mb 0.00 in0.0 mm 0.00 in0.0 mm 0.00 in0.0 mm
03:13 AM 35.3°F1.8°C 27.5°F-2.5°C 73% 20.0 mph SW32.2 kmh SW 39.0 mph62.8 kmh 30.37 in1028.4 mb 0.00 in0.0 mm 0.00 in0.0 mm 0.00 in0.0 mm
03:12 AM 35.4°F1.9°C 27.6°F-2.4°C 73% 13.0 mph SSW20.9 kmh SSW 39.0 mph62.8 kmh 30.37 in1028.4 mb 0.00 in0.0 mm 0.00 in0.0 mm 0.00 in0.0 mm
03:11 AM 35.3°F1.8°C 27.2°F-2.7°C 72% 15.0 mph SSW24.1 kmh SSW 39.0 mph62.8 kmh 30.37 in1028.4 mb 0.00 in0.0 mm 0.00 in0.0 mm 0.00 in0.0 mm
03:10 AM 35.2°F1.8°C 27.8°F-2.3°C 74% 28.0 mph S45.1 kmh S 39.0 mph62.8 kmh 30.37 in1028.4 mb 0.00 in0.0 mm 0.00 in0.0 mm 0.00 in0.0 mm
03:09 AM 35.3°F1.8°C 27.9°F-2.3°C 74% 17.0 mph SW27.4 kmh SW 39.0 mph62.8 kmh 30.36 in1028.1 mb 0.00 in0.0 mm 0.00 in0.0 mm 0.00 in0.0 mm
03:08 AM 35.3°F1.8°C 27.9°F-2.3°C 74% 16.0 mph SW25.7 kmh SW 39.0 mph62.8 kmh 30.36 in1028.1 mb 0.00 in0.0 mm 0.00 in0.0 mm 0.00 in0.0 mm
03:07 AM 35.2°F1.8°C 27.4°F-2.6°C 73% 23.0 mph SSW37.0 kmh SSW 30.0 mph48.3 kmh 30.36 in1028.1 mb 0.00 in0.0 mm 0.00 in0.0 mm 0.00 in0.0 mm
03:06 AM 35.2°F1.8°C 27.8°F-2.3°C 74% 13.0 mph S20.9 kmh S 30.0 mph48.3 kmh 30.37 in1028.4 mb 0.00 in0.0 mm 0.00 in0.0 mm 0.00 in0.0 mm
03:05 AM 35.1°F1.7°C 27.7°F-2.4°C 74% 21.0 mph SW33.8 kmh SW 30.0 mph48.3 kmh 30.37 in1028.4 mb 0.00 in0.0 mm 0.00 in0.0 mm 0.00 in0.0 mm
03:04 AM 35.0°F1.7°C 27.6°F-2.4°C 74% 17.0 mph SW27.4 kmh SW 30.0 mph48.3 kmh 30.36 in1028.1 mb 0.00 in0.0 mm 0.00 in0.0 mm 0.00 in0.0 mm
03:03 AM 35.0°F1.7°C 27.9°F-2.3°C 75% 15.0 mph SSW24.1 kmh SSW 30.0 mph48.3 kmh 30.37 in1028.4 mb 0.00 in0.0 mm 0.00 in0.0 mm 0.00 in0.0 mm
03:02 AM 34.9°F1.6°C 28.1°F-2.2°C 76% 14.0 mph SW22.5 kmh SW 29.0 mph46.7 kmh 30.37 in1028.4 mb 0.00 in0.0 mm 0.00 in0.0 mm 0.00 in0.0 mm
03:01 AM 35.0°F1.7°C 28.2°F-2.1°C 76% 21.0 mph SW33.8 kmh SW 28.0 mph45.1 kmh 30.38 in1028.8 mb 0.00 in0.0 mm 0.00 in0.0 mm 0.00 in0.0 mm
03:00 AM 35.0°F1.7°C 28.2°F-2.1°C 76% 18.0 mph SW29.0 kmh SW 27.0 mph43.5 kmh 30.38 in1028.8 mb 0.00 in0.0 mm 0.00 in0.0 mm 0.00 in0.0 mm
02:59 AM 35.0°F1.7°C 27.9°F-2.3°C 75% 13.0 mph SW20.9 kmh SW 27.0 mph43.5 kmh 30.38 in1028.8 mb 0.00 in0.0 mm 0.00 in0.0 mm 0.00 in0.0 mm
02:58 AM 35.0°F1.7°C 28.2°F-2.1°C 76% 19.0 mph SW30.6 kmh SW 27.0 mph43.5 kmh 30.39 in1029.1 mb 0.00 in0.0 mm 0.00 in0.0 mm 0.00 in0.0 mm
02:57 AM 35.1°F1.7°C 28.0°F-2.2°C 75% 11.0 mph SSW17.7 kmh SSW 27.0 mph43.5 kmh 30.39 in1029.1 mb 0.00 in0.0 mm 0.00 in0.0 mm 0.00 in0.0 mm
02:56 AM 35.1°F1.7°C 28.0°F-2.2°C 75% 14.0 mph SW22.5 kmh SW 27.0 mph43.5 kmh 30.38 in1028.8 mb 0.00 in0.0 mm 0.00 in0.0 mm 0.00 in0.0 mm
02:55 AM 35.2°F1.8°C 28.1°F-2.2°C 75% 17.0 mph SSW27.4 kmh SSW 27.0 mph43.5 kmh 30.39 in1029.1 mb 0.00 in0.0 mm 0.00 in0.0 mm 0.00 in0.0 mm
02:54 AM 35.2°F1.8°C 28.1°F-2.2°C 75% 13.0 mph SSW20.9 kmh SSW 27.0 mph43.5 kmh 30.39 in1029.1 mb 0.00 in0.0 mm 0.00 in0.0 mm 0.00 in0.0 mm
02:53 AM 35.1°F1.7°C 27.7°F-2.4°C 74% 12.0 mph SW19.3 kmh SW 27.0 mph43.5 kmh 30.39 in1029.1 mb 0.00 in0.0 mm 0.00 in0.0 mm 0.00 in0.0 mm
02:52 AM 35.0°F1.7°C 27.9°F-2.3°C 75% 14.0 mph SSW22.5 kmh SSW 27.0 mph43.5 kmh 30.40 in1029.5 mb 0.00 in0.0 mm 0.00 in0.0 mm 0.00 in0.0 mm
02:51 AM 35.0°F1.7°C 28.2°F-2.1°C 76% 14.0 mph SSW22.5 kmh SSW 27.0 mph43.5 kmh 30.40 in1029.5 mb 0.00 in0.0 mm 0.00 in0.0 mm 0.00 in0.0 mm
02:50 AM 34.9°F1.6°C 28.1°F-2.2°C 76% 11.0 mph SW17.7 kmh SW 27.0 mph43.5 kmh 30.40 in1029.5 mb 0.00 in0.0 mm 0.00 in0.0 mm 0.00 in0.0 mm
02:49 AM 34.9°F1.6°C 28.1°F-2.2°C 76% 12.0 mph SSW19.3 kmh SSW 27.0 mph43.5 kmh 30.40 in1029.5 mb 0.00 in0.0 mm 0.00 in0.0 mm 0.00 in0.0 mm
02:48 AM 34.9°F1.6°C 28.1°F-2.2°C 76% 15.0 mph SW24.1 kmh SW 27.0 mph43.5 kmh 30.39 in1029.1 mb 0.00 in0.0 mm 0.00 in0.0 mm 0.00 in0.0 mm
02:47 AM 34.9°F1.6°C 28.4°F-2.0°C 77% 27.0 mph SW43.5 kmh SW 27.0 mph43.5 kmh 30.39 in1029.1 mb 0.00 in0.0 mm 0.00 in0.0 mm 0.00 in0.0 mm
02:46 AM 34.9°F1.6°C 28.1°F-2.2°C 76% 15.0 mph SSW24.1 kmh SSW 27.0 mph43.5 kmh 30.39 in1029.1 mb 0.00 in0.0 mm 0.00 in0.0 mm 0.00 in0.0 mm
02:45 AM 34.9°F1.6°C 28.1°F-2.2°C 76% 18.0 mph SSW29.0 kmh SSW 27.0 mph43.5 kmh 30.39 in1029.1 mb 0.00 in0.0 mm 0.00 in0.0 mm 0.00 in0.0 mm
02:44 AM 34.9°F1.6°C 28.1°F-2.2°C 76% 17.0 mph SW27.4 kmh SW 27.0 mph43.5 kmh 30.39 in1029.1 mb 0.00 in0.0 mm 0.00 in0.0 mm 0.00 in0.0 mm
02:43 AM 35.0°F1.7°C 28.5°F-1.9°C 77% 15.0 mph SSW24.1 kmh SSW 30.0 mph48.3 kmh 30.39 in1029.1 mb 0.00 in0.0 mm 0.00 in0.0 mm 0.00 in0.0 mm
02:42 AM 35.0°F1.7°C 28.2°F-2.1°C 76% 16.0 mph SW25.7 kmh SW 30.0 mph48.3 kmh 30.39 in1029.1 mb 0.00 in0.0 mm 0.00 in0.0 mm 0.00 in0.0 mm
02:41 AM 35.0°F1.7°C 28.2°F-2.1°C 76% 18.0 mph SSW29.0 kmh SSW 30.0 mph48.3 kmh 30.39 in1029.1 mb 0.00 in0.0 mm 0.00 in0.0 mm 0.00 in0.0 mm
02:40 AM 35.0°F1.7°C 28.2°F-2.1°C 76% 18.0 mph SW29.0 kmh SW 30.0 mph48.3 kmh 30.40 in1029.5 mb 0.00 in0.0 mm 0.00 in0.0 mm 0.00 in0.0 mm
02:39 AM 35.1°F1.7°C 28.3°F-2.1°C 76% 17.0 mph SSW27.4 kmh SSW 30.0 mph48.3 kmh 30.39 in1029.1 mb 0.00 in0.0 mm 0.00 in0.0 mm 0.00 in0.0 mm
02:38 AM 35.1°F1.7°C 28.3°F-2.1°C 76% 15.0 mph SSW24.1 kmh SSW 30.0 mph48.3 kmh 30.39 in1029.1 mb 0.00 in0.0 mm 0.00 in0.0 mm 0.00 in0.0 mm
02:37 AM 35.1°F1.7°C 28.3°F-2.1°C 76% 11.0 mph SSW17.7 kmh SSW 30.0 mph48.3 kmh 30.39 in1029.1 mb 0.00 in0.0 mm 0.00 in0.0 mm 0.00 in0.0 mm
02:36 AM 35.1°F1.7°C 28.3°F-2.1°C 76% 13.0 mph SSW20.9 kmh SSW 30.0 mph48.3 kmh 30.39 in1029.1 mb 0.00 in0.0 mm 0.00 in0.0 mm 0.00 in0.0 mm
02:35 AM 35.1°F1.7°C 28.3°F-2.1°C 76% 23.0 mph SW37.0 kmh SW 30.0 mph48.3 kmh 30.39 in1029.1 mb 0.00 in0.0 mm 0.00 in0.0 mm 0.00 in0.0 mm
02:34 AM 35.2°F1.8°C 28.4°F-2.0°C 76% 14.0 mph SW22.5 kmh SW 30.0 mph48.3 kmh 30.40 in1029.5 mb 0.00 in0.0 mm 0.00 in0.0 mm 0.00 in0.0 mm
02:33 AM 35.2°F1.8°C 28.4°F-2.0°C 76% 16.0 mph SW25.7 kmh SW 31.0 mph49.9 kmh 30.40 in1029.5 mb 0.00 in0.0 mm 0.00 in0.0 mm 0.00 in0.0 mm
02:32 AM 35.2°F1.8°C 28.4°F-2.0°C 76% 23.0 mph SW37.0 kmh SW 31.0 mph49.9 kmh 30.40 in1029.5 mb 0.00 in0.0 mm 0.00 in0.0 mm 0.00 in0.0 mm
02:31 AM 35.2°F1.8°C 28.4°F-2.0°C 76% 16.0 mph SSW25.7 kmh SSW 31.0 mph49.9 kmh 30.40 in1029.5 mb 0.00 in0.0 mm 0.00 in0.0 mm 0.00 in0.0 mm
02:30 AM 35.3°F1.8°C 28.2°F-2.1°C 75% 15.0 mph SW24.1 kmh SW 31.0 mph49.9 kmh 30.40 in1029.5 mb 0.00 in0.0 mm 0.00 in0.0 mm 0.00 in0.0 mm
02:29 AM 35.3°F1.8°C 28.2°F-2.1°C 75% 17.0 mph SSW27.4 kmh SSW 31.0 mph49.9 kmh 30.39 in1029.1 mb 0.00 in0.0 mm 0.00 in0.0 mm 0.00 in0.0 mm
02:28 AM 35.3°F1.8°C 28.2°F-2.1°C 75% 13.0 mph SW20.9 kmh SW 31.0 mph49.9 kmh 30.40 in1029.5 mb 0.00 in0.0 mm 0.00 in0.0 mm 0.00 in0.0 mm
02:27 AM 35.2°F1.8°C 28.1°F-2.2°C 75% 21.0 mph SSW33.8 kmh SSW 31.0 mph49.9 kmh 30.40 in1029.5 mb 0.00 in0.0 mm 0.00 in0.0 mm 0.00 in0.0 mm
02:26 AM 35.3°F1.8°C 28.2°F-2.1°C 75% 22.0 mph SW35.4 kmh SW 31.0 mph49.9 kmh 30.39 in1029.1 mb 0.00 in0.0 mm 0.00 in0.0 mm 0.00 in0.0 mm
02:25 AM 35.3°F1.8°C 28.2°F-2.1°C 75% 15.0 mph SW24.1 kmh SW 31.0 mph49.9 kmh 30.40 in1029.5 mb 0.00 in0.0 mm 0.00 in0.0 mm 0.00 in0.0 mm
02:24 AM 35.3°F1.8°C 28.2°F-2.1°C 75% 24.0 mph S38.6 kmh S 31.0 mph49.9 kmh 30.40 in1029.5 mb 0.00 in0.0 mm 0.00 in0.0 mm 0.00 in0.0 mm
02:23 AM 35.4°F1.9°C 28.3°F-2.1°C 75% 15.0 mph SW24.1 kmh SW 31.0 mph49.9 kmh 30.41 in1029.8 mb 0.00 in0.0 mm 0.00 in0.0 mm 0.00 in0.0 mm
02:22 AM 35.5°F1.9°C 28.4°F-2.0°C 75% 17.0 mph S27.4 kmh S 31.0 mph49.9 kmh 30.41 in1029.8 mb 0.00 in0.0 mm 0.00 in0.0 mm 0.00 in0.0 mm
02:21 AM 35.5°F1.9°C 28.4°F-2.0°C 75% 16.0 mph SSW25.7 kmh SSW 31.0 mph49.9 kmh 30.41 in1029.8 mb 0.00 in0.0 mm 0.00 in0.0 mm 0.00 in0.0 mm
02:20 AM 35.6°F2.0°C 28.1°F-2.2°C 74% 16.0 mph S25.7 kmh S 31.0 mph49.9 kmh 30.41 in1029.8 mb 0.00 in0.0 mm 0.00 in0.0 mm 0.00 in0.0 mm
02:19 AM 35.6°F2.0°C 28.1°F-2.2°C 74% 19.0 mph SSW30.6 kmh SSW 31.0 mph49.9 kmh 30.41 in1029.8 mb 0.00 in0.0 mm 0.00 in0.0 mm 0.00 in0.0 mm
02:18 AM 35.6°F2.0°C 28.1°F-2.2°C 74% 28.0 mph SSW45.1 kmh SSW 31.0 mph49.9 kmh 30.40 in1029.5 mb 0.00 in0.0 mm 0.00 in0.0 mm 0.00 in0.0 mm
02:17 AM 35.7°F2.1°C 27.9°F-2.3°C 73% 10.0 mph WSW16.1 kmh WSW 31.0 mph49.9 kmh 30.41 in1029.8 mb 0.00 in0.0 mm 0.00 in0.0 mm 0.00 in0.0 mm
02:16 AM 35.7°F2.1°C 27.9°F-2.3°C 73% 13.0 mph SSW20.9 kmh SSW 31.0 mph49.9 kmh 30.41 in1029.8 mb 0.00 in0.0 mm 0.00 in0.0 mm 0.00 in0.0 mm
02:15 AM 35.7°F2.1°C 27.9°F-2.3°C 73% 13.0 mph SSW20.9 kmh SSW 31.0 mph49.9 kmh 30.41 in1029.8 mb 0.00 in0.0 mm 0.00 in0.0 mm 0.00 in0.0 mm
02:14 AM 35.7°F2.1°C 28.2°F-2.1°C 74% 18.0 mph SSW29.0 kmh SSW 31.0 mph49.9 kmh 30.41 in1029.8 mb 0.00 in0.0 mm 0.00 in0.0 mm 0.00 in0.0 mm
02:13 AM 35.7°F2.1°C 28.2°F-2.1°C 74% 18.0 mph SSW29.0 kmh SSW 25.0 mph40.2 kmh 30.41 in1029.8 mb 0.00 in0.0 mm 0.00 in0.0 mm 0.00 in0.0 mm
02:12 AM 35.7°F2.1°C 28.2°F-2.1°C 74% 13.0 mph SW20.9 kmh SW 24.0 mph38.6 kmh 30.41 in1029.8 mb 0.00 in0.0 mm 0.00 in0.0 mm 0.00 in0.0 mm
02:11 AM 35.8°F2.1°C 28.3°F-2.1°C 74% 12.0 mph SSW19.3 kmh SSW 31.0 mph49.9 kmh 30.41 in1029.8 mb 0.00 in0.0 mm 0.00 in0.0 mm 0.00 in0.0 mm
02:10 AM 35.8°F2.1°C 28.0°F-2.2°C 73% 19.0 mph SSW30.6 kmh SSW 31.0 mph49.9 kmh 30.41 in1029.8 mb 0.00 in0.0 mm 0.00 in0.0 mm 0.00 in0.0 mm
02:09 AM 35.8°F2.1°C 28.0°F-2.2°C 73% 16.0 mph SSW25.7 kmh SSW 31.0 mph49.9 kmh 30.42 in1030.1 mb 0.00 in0.0 mm 0.00 in0.0 mm 0.00 in0.0 mm
02:08 AM 35.8°F2.1°C 28.3°F-2.1°C 74% 14.0 mph SW22.5 kmh SW 31.0 mph49.9 kmh 30.41 in1029.8 mb 0.00 in0.0 mm 0.00 in0.0 mm 0.00 in0.0 mm
02:07 AM 35.9°F2.2°C 28.4°F-2.0°C 74% 10.0 mph SW16.1 kmh SW 31.0 mph49.9 kmh 30.42 in1030.1 mb 0.00 in0.0 mm 0.00 in0.0 mm 0.00 in0.0 mm
02:06 AM 35.9°F2.2°C 28.1°F-2.2°C 73% 12.0 mph SW19.3 kmh SW 31.0 mph49.9 kmh 30.42 in1030.1 mb 0.00 in0.0 mm 0.00 in0.0 mm 0.00 in0.0 mm
02:05 AM 35.9°F2.2°C 28.1°F-2.2°C 73% 22.0 mph S35.4 kmh S 31.0 mph49.9 kmh 30.42 in1030.1 mb 0.00 in0.0 mm 0.00 in0.0 mm 0.00 in0.0 mm
02:04 AM 36.0°F2.2°C 28.2°F-2.1°C 73% 15.0 mph SSW24.1 kmh SSW 31.0 mph49.9 kmh 30.42 in1030.1 mb 0.00 in0.0 mm 0.00 in0.0 mm 0.00 in0.0 mm
02:03 AM 36.0°F2.2°C 28.2°F-2.1°C 73% 20.0 mph S32.2 kmh S 31.0 mph49.9 kmh 30.42 in1030.1 mb 0.00 in0.0 mm 0.00 in0.0 mm 0.00 in0.0 mm
02:02 AM 36.0°F2.2°C 28.2°F-2.1°C 73% 15.0 mph S24.1 kmh S 31.0 mph49.9 kmh 30.42 in1030.1 mb 0.00 in0.0 mm 0.00 in0.0 mm 0.00 in0.0 mm
02:01 AM 36.0°F2.2°C 27.9°F-2.3°C 72% 16.0 mph SW25.7 kmh SW 31.0 mph49.9 kmh 30.42 in1030.1 mb 0.00 in0.0 mm 0.00 in0.0 mm 0.00 in0.0 mm
02:00 AM 36.0°F2.2°C 27.9°F-2.3°C 72% 22.0 mph S35.4 kmh S 31.0 mph49.9 kmh 30.42 in1030.1 mb 0.00 in0.0 mm 0.00 in0.0 mm 0.00 in0.0 mm
01:59 AM 35.9°F2.2°C 28.1°F-2.2°C 73% 10.0 mph SSW16.1 kmh SSW 31.0 mph49.9 kmh 30.42 in1030.1 mb 0.00 in0.0 mm 0.00 in0.0 mm 0.00 in0.0 mm
01:58 AM 36.0°F2.2°C 28.2°F-2.1°C 73% 12.0 mph SW19.3 kmh SW 31.0 mph49.9 kmh 30.42 in1030.1 mb 0.00 in0.0 mm 0.00 in0.0 mm 0.00 in0.0 mm
01:57 AM 35.9°F2.2°C 28.1°F-2.2°C 73% 15.0 mph WSW24.1 kmh WSW 31.0 mph49.9 kmh 30.42 in1030.1 mb 0.00 in0.0 mm 0.00 in0.0 mm 0.00 in0.0 mm
01:56 AM 35.9°F2.2°C 28.1°F-2.2°C 73% 14.0 mph SW22.5 kmh SW 31.0 mph49.9 kmh 30.42 in1030.1 mb 0.00 in0.0 mm 0.00 in0.0 mm 0.00 in0.0 mm
01:55 AM 35.9°F2.2°C 28.4°F-2.0°C 74% 16.0 mph SSW25.7 kmh SSW 31.0 mph49.9 kmh 30.42 in1030.1 mb 0.00 in0.0 mm 0.00 in0.0 mm 0.00 in0.0 mm
01:54 AM 36.0°F2.2°C 28.2°F-2.1°C 73% 14.0 mph SW22.5 kmh SW 31.0 mph49.9 kmh 30.42 in1030.1 mb 0.00 in0.0 mm 0.00 in0.0 mm 0.00 in0.0 mm
01:53 AM 36.0°F2.2°C 28.5°F-1.9°C 74% 11.0 mph SSW17.7 kmh SSW 31.0 mph49.9 kmh 30.42 in1030.1 mb 0.00 in0.0 mm 0.00 in0.0 mm 0.00 in0.0 mm
01:52 AM 35.9°F2.2°C 28.4°F-2.0°C 74% 11.0 mph SW17.7 kmh SW 31.0 mph49.9 kmh 30.43 in1030.5 mb 0.00 in0.0 mm 0.00 in0.0 mm 0.00 in0.0 mm
01:51 AM 35.8°F2.1°C 28.3°F-2.1°C 74% 15.0 mph SW24.1 kmh SW 27.0 mph43.5 kmh 30.42 in1030.1 mb 0.00 in0.0 mm 0.00 in0.0 mm 0.00 in0.0 mm
01:50 AM 35.7°F2.1°C 28.2°F-2.1°C 74% 17.0 mph SSW27.4 kmh SSW 29.0 mph46.7 kmh 30.42 in1030.1 mb 0.00 in0.0 mm 0.00 in0.0 mm 0.00 in0.0 mm
01:49 AM 35.7°F2.1°C 28.6°F-1.9°C 75% 11.0 mph SSW17.7 kmh SSW 29.0 mph46.7 kmh 30.42 in1030.1 mb 0.00 in0.0 mm 0.00 in0.0 mm 0.00 in0.0 mm
01:48 AM 35.7°F2.1°C 28.6°F-1.9°C 75% 20.0 mph SW32.2 kmh SW 29.0 mph46.7 kmh 30.42 in1030.1 mb 0.00 in0.0 mm 0.00 in0.0 mm 0.00 in0.0 mm
01:47 AM 35.7°F2.1°C 28.9°F-1.7°C 76% 16.0 mph SSW25.7 kmh SSW 29.0 mph46.7 kmh 30.42 in1030.1 mb 0.00 in0.0 mm 0.00 in0.0 mm 0.00 in0.0 mm
01:46 AM 35.7°F2.1°C 28.9°F-1.7°C 76% 20.0 mph S32.2 kmh S 29.0 mph46.7 kmh 30.41 in1029.8 mb 0.00 in0.0 mm 0.00 in0.0 mm 0.00 in0.0 mm
01:45 AM 35.8°F2.1°C 28.7°F-1.8°C 75% 18.0 mph S29.0 kmh S 29.0 mph46.7 kmh 30.42 in1030.1 mb 0.00 in0.0 mm 0.00 in0.0 mm 0.00 in0.0 mm
01:44 AM 35.8°F2.1°C 28.7°F-1.8°C 75% 12.0 mph SSW19.3 kmh SSW 29.0 mph46.7 kmh 30.42 in1030.1 mb 0.00 in0.0 mm 0.00 in0.0 mm 0.00 in0.0 mm
01:43 AM 35.9°F2.2°C 28.8°F-1.8°C 75% 9.0 mph SW14.5 kmh SW 29.0 mph46.7 kmh 30.42 in1030.1 mb 0.00 in0.0 mm 0.00 in0.0 mm 0.00 in0.0 mm
01:42 AM 35.9°F2.2°C 28.8°F-1.8°C 75% 13.0 mph SSW20.9 kmh SSW 29.0 mph46.7 kmh 30.42 in1030.1 mb 0.00 in0.0 mm 0.00 in0.0 mm 0.00 in0.0 mm
01:41 AM 35.9°F2.2°C 28.8°F-1.8°C 75% 12.0 mph S19.3 kmh S 29.0 mph46.7 kmh 30.42 in1030.1 mb 0.00 in0.0 mm 0.00 in0.0 mm 0.00 in0.0 mm
01:40 AM 35.9°F2.2°C 28.8°F-1.8°C 75% 10.0 mph SSW16.1 kmh SSW 29.0 mph46.7 kmh 30.42 in1030.1 mb 0.00 in0.0 mm 0.00 in0.0 mm 0.00 in0.0 mm
01:39 AM 35.9°F2.2°C 28.8°F-1.8°C 75% 19.0 mph SSW30.6 kmh SSW 29.0 mph46.7 kmh 30.42 in1030.1 mb 0.00 in0.0 mm 0.00 in0.0 mm 0.00 in0.0 mm
01:38 AM 35.9°F2.2°C 28.8°F-1.8°C 75% 15.0 mph SSW24.1 kmh SSW 29.0 mph46.7 kmh 30.42 in1030.1 mb 0.00 in0.0 mm 0.00 in0.0 mm 0.00 in0.0 mm
01:37 AM 35.8°F2.1°C 28.7°F-1.8°C 75% 11.0 mph SW17.7 kmh SW 29.0 mph46.7 kmh 30.42 in1030.1 mb 0.00 in0.0 mm 0.00 in0.0 mm 0.00 in0.0 mm
01:36 AM 35.8°F2.1°C 29.0°F-1.7°C 76% 16.0 mph SW25.7 kmh SW 29.0 mph46.7 kmh 30.42 in1030.1 mb 0.00 in0.0 mm 0.00 in0.0 mm 0.00 in0.0 mm
01:35 AM 35.8°F2.1°C 29.0°F-1.7°C 76% 19.0 mph S30.6 kmh S 29.0 mph46.7 kmh 30.41 in1029.8 mb 0.00 in0.0 mm 0.00 in0.0 mm 0.00 in0.0 mm
01:34 AM 35.8°F2.1°C 29.0°F-1.7°C 76% 16.0 mph S25.7 kmh S 29.0 mph46.7 kmh 30.42 in1030.1 mb 0.00 in0.0 mm 0.00 in0.0 mm 0.00 in0.0 mm
01:33 AM 35.8°F2.1°C 29.0°F-1.7°C 76% 14.0 mph S22.5 kmh S 29.0 mph46.7 kmh 30.41 in1029.8 mb 0.00 in0.0 mm 0.00 in0.0 mm 0.00 in0.0 mm
01:32 AM 35.9°F2.2°C 29.1°F-1.6°C 76% 17.0 mph SSW27.4 kmh SSW 29.0 mph46.7 kmh 30.42 in1030.1 mb 0.00 in0.0 mm 0.00 in0.0 mm 0.00 in0.0 mm
01:31 AM 35.8°F2.1°C 29.0°F-1.7°C 76% 9.0 mph SW14.5 kmh SW 29.0 mph46.7 kmh 30.42 in1030.1 mb 0.00 in0.0 mm 0.00 in0.0 mm 0.00 in0.0 mm
01:30 AM 35.7°F2.1°C 29.2°F-1.6°C 77% 17.0 mph S27.4 kmh S 26.0 mph41.8 kmh 30.42 in1030.1 mb 0.00 in0.0 mm 0.00 in0.0 mm 0.00 in0.0 mm
01:29 AM 35.6°F2.0°C 29.1°F-1.6°C 77% 17.0 mph SSW27.4 kmh SSW 22.0 mph35.4 kmh 30.42 in1030.1 mb 0.00 in0.0 mm 0.00 in0.0 mm 0.00 in0.0 mm
01:28 AM 35.6°F2.0°C 29.1°F-1.6°C 77% 13.0 mph S20.9 kmh S 21.0 mph33.8 kmh 30.42 in1030.1 mb 0.00 in0.0 mm 0.00 in0.0 mm 0.00 in0.0 mm
01:27 AM 35.6°F2.0°C 29.1°F-1.6°C 77% 16.0 mph SW25.7 kmh SW 21.0 mph33.8 kmh 30.42 in1030.1 mb 0.00 in0.0 mm 0.00 in0.0 mm 0.00 in0.0 mm
01:26 AM 35.6°F2.0°C 29.1°F-1.6°C 77% 12.0 mph S19.3 kmh S 21.0 mph33.8 kmh 30.42 in1030.1 mb 0.00 in0.0 mm 0.00 in0.0 mm 0.00 in0.0 mm
01:25 AM 35.6°F2.0°C 29.1°F-1.6°C 77% 16.0 mph SSW25.7 kmh SSW 21.0 mph33.8 kmh 30.42 in1030.1 mb 0.00 in0.0 mm 0.00 in0.0 mm 0.00 in0.0 mm
01:24 AM 35.6°F2.0°C 29.1°F-1.6°C 77% 21.0 mph S33.8 kmh S 21.0 mph33.8 kmh 30.42 in1030.1 mb 0.00 in0.0 mm 0.00 in0.0 mm 0.00 in0.0 mm
01:23 AM 35.6°F2.0°C 29.1°F-1.6°C 77% 11.0 mph SSW17.7 kmh SSW 20.0 mph32.2 kmh 30.42 in1030.1 mb 0.00 in0.0 mm 0.00 in0.0 mm 0.00 in0.0 mm
01:22 AM 35.6°F2.0°C 29.1°F-1.6°C 77% 13.0 mph S20.9 kmh S 23.0 mph37.0 kmh 30.42 in1030.1 mb 0.00 in0.0 mm 0.00 in0.0 mm 0.00 in0.0 mm
01:21 AM 35.6°F2.0°C 28.8°F-1.8°C 76% 17.0 mph S27.4 kmh S 23.0 mph37.0 kmh 30.42 in1030.1 mb 0.00 in0.0 mm 0.00 in0.0 mm 0.00 in0.0 mm
01:20 AM 35.6°F2.0°C 28.8°F-1.8°C 76% 12.0 mph SSW19.3 kmh SSW 23.0 mph37.0 kmh 30.42 in1030.1 mb 0.00 in0.0 mm 0.00 in0.0 mm 0.00 in0.0 mm
01:19 AM 35.6°F2.0°C 29.1°F-1.6°C 77% 19.0 mph SW30.6 kmh SW 23.0 mph37.0 kmh 30.42 in1030.1 mb 0.00 in0.0 mm 0.00 in0.0 mm 0.00 in0.0 mm
01:18 AM 35.6°F2.0°C 29.1°F-1.6°C 77% 11.0 mph SW17.7 kmh SW 23.0 mph37.0 kmh 30.42 in1030.1 mb 0.00 in0.0 mm 0.00 in0.0 mm 0.00 in0.0 mm
01:17 AM 35.7°F2.1°C 29.2°F-1.6°C 77% 6.0 mph SSW9.7 kmh SSW 23.0 mph37.0 kmh 30.42 in1030.1 mb 0.00 in0.0 mm 0.00 in0.0 mm 0.00 in0.0 mm
01:16 AM 35.7°F2.1°C 28.6°F-1.9°C 75% 8.0 mph SSW12.9 kmh SSW 23.0 mph37.0 kmh 30.42 in1030.1 mb 0.00 in0.0 mm 0.00 in0.0 mm 0.00 in0.0 mm
01:15 AM 35.6°F2.0°C 28.8°F-1.8°C 76% 9.0 mph S14.5 kmh S 23.0 mph37.0 kmh 30.41 in1029.8 mb 0.00 in0.0 mm 0.00 in0.0 mm 0.00 in0.0 mm
01:14 AM 35.6°F2.0°C 29.4°F-1.4°C 78% 10.0 mph SW16.1 kmh SW 23.0 mph37.0 kmh 30.42 in1030.1 mb 0.00 in0.0 mm 0.00 in0.0 mm 0.00 in0.0 mm
01:13 AM 35.6°F2.0°C 29.1°F-1.6°C 77% 10.0 mph SW16.1 kmh SW 23.0 mph37.0 kmh 30.42 in1030.1 mb 0.00 in0.0 mm 0.00 in0.0 mm 0.00 in0.0 mm
01:12 AM 35.6°F2.0°C 28.8°F-1.8°C 76% 13.0 mph SW20.9 kmh SW 23.0 mph37.0 kmh 30.41 in1029.8 mb 0.00 in0.0 mm 0.00 in0.0 mm 0.00 in0.0 mm
01:11 AM 35.5°F1.9°C 29.0°F-1.7°C 77% 8.0 mph SSW12.9 kmh SSW 23.0 mph37.0 kmh 30.41 in1029.8 mb 0.00 in0.0 mm 0.00 in0.0 mm 0.00 in0.0 mm
01:10 AM 35.5°F1.9°C 29.0°F-1.7°C 77% 7.0 mph SW11.3 kmh SW 23.0 mph37.0 kmh 30.42 in1030.1 mb 0.00 in0.0 mm 0.00 in0.0 mm 0.00 in0.0 mm
01:09 AM 35.4°F1.9°C 28.9°F-1.7°C 77% 13.0 mph SSW20.9 kmh SSW 23.0 mph37.0 kmh 30.41 in1029.8 mb 0.00 in0.0 mm 0.00 in0.0 mm 0.00 in0.0 mm
01:08 AM 35.4°F1.9°C 29.2°F-1.6°C 78% 15.0 mph S24.1 kmh S 23.0 mph37.0 kmh 30.41 in1029.8 mb 0.00 in0.0 mm 0.00 in0.0 mm 0.00 in0.0 mm
01:07 AM 35.4°F1.9°C 29.2°F-1.6°C 78% 12.0 mph SSW19.3 kmh SSW 23.0 mph37.0 kmh 30.41 in1029.8 mb 0.00 in0.0 mm 0.00 in0.0 mm 0.00 in0.0 mm
01:06 AM 35.4°F1.9°C 29.2°F-1.6°C 78% 12.0 mph SSW19.3 kmh SSW 23.0 mph37.0 kmh 30.41 in1029.8 mb 0.00 in0.0 mm 0.00 in0.0 mm 0.00 in0.0 mm
01:05 AM 35.4°F1.9°C 29.2°F-1.6°C 78% 12.0 mph SSW19.3 kmh SSW 23.0 mph37.0 kmh 30.41 in1029.8 mb 0.00 in0.0 mm 0.00 in0.0 mm 0.00 in0.0 mm
01:04 AM 35.4°F1.9°C 29.2°F-1.6°C 78% 8.0 mph SW12.9 kmh SW 23.0 mph37.0 kmh 30.41 in1029.8 mb 0.00 in0.0 mm 0.00 in0.0 mm 0.00 in0.0 mm
01:03 AM 35.4°F1.9°C 29.2°F-1.6°C 78% 15.0 mph SSW24.1 kmh SSW 23.0 mph37.0 kmh 30.41 in1029.8 mb 0.00 in0.0 mm 0.00 in0.0 mm 0.00 in0.0 mm
01:02 AM 35.4°F1.9°C 29.2°F-1.6°C 78% 14.0 mph SW22.5 kmh SW 27.0 mph43.5 kmh 30.41 in1029.8 mb 0.00 in0.0 mm 0.00 in0.0 mm 0.00 in0.0 mm
01:01 AM 35.4°F1.9°C 29.2°F-1.6°C 78% 17.0 mph S27.4 kmh S 27.0 mph43.5 kmh 30.41 in1029.8 mb 0.00 in0.0 mm 0.00 in0.0 mm 0.00 in0.0 mm
01:00 AM 35.4°F1.9°C 29.2°F-1.6°C 78% 11.0 mph S17.7 kmh S 27.0 mph43.5 kmh 30.41 in1029.8 mb 0.00 in0.0 mm 0.00 in0.0 mm 0.00 in0.0 mm
12:59 AM 35.4°F1.9°C 29.2°F-1.6°C 78% 12.0 mph SSW19.3 kmh SSW 27.0 mph43.5 kmh 30.41 in1029.8 mb 0.00 in0.0 mm 0.00 in0.0 mm 0.00 in0.0 mm
12:58 AM 35.4°F1.9°C 29.2°F-1.6°C 78% 18.0 mph S29.0 kmh S 27.0 mph43.5 kmh 30.41 in1029.8 mb 0.00 in0.0 mm 0.00 in0.0 mm 0.00 in0.0 mm
12:57 AM 35.4°F1.9°C 29.5°F-1.4°C 79% 8.0 mph SW12.9 kmh SW 27.0 mph43.5 kmh 30.41 in1029.8 mb 0.00 in0.0 mm 0.00 in0.0 mm 0.00 in0.0 mm
12:56 AM 35.5°F1.9°C 29.6°F-1.3°C 79% 11.0 mph SSW17.7 kmh SSW 27.0 mph43.5 kmh 30.41 in1029.8 mb 0.00 in0.0 mm 0.00 in0.0 mm 0.00 in0.0 mm
12:55 AM 35.5°F1.9°C 29.3°F-1.5°C 78% 13.0 mph S20.9 kmh S 27.0 mph43.5 kmh 30.41 in1029.8 mb 0.00 in0.0 mm 0.00 in0.0 mm 0.00 in0.0 mm
12:54 AM 35.5°F1.9°C 29.6°F-1.3°C 79% 12.0 mph SW19.3 kmh SW 27.0 mph43.5 kmh 30.41 in1029.8 mb 0.00 in0.0 mm 0.00 in0.0 mm 0.00 in0.0 mm
12:53 AM 35.5°F1.9°C 29.6°F-1.3°C 79% 15.0 mph S24.1 kmh S 27.0 mph43.5 kmh 30.41 in1029.8 mb 0.00 in0.0 mm 0.00 in0.0 mm 0.00 in0.0 mm
12:52 AM 35.6°F2.0°C 29.4°F-1.4°C 78% 17.0 mph S27.4 kmh S 27.0 mph43.5 kmh 30.41 in1029.8 mb 0.00 in0.0 mm 0.00 in0.0 mm 0.00 in0.0 mm
12:51 AM 35.7°F2.1°C 29.8°F-1.2°C 79% 15.0 mph S24.1 kmh S 27.0 mph43.5 kmh 30.41 in1029.8 mb 0.00 in0.0 mm 0.00 in0.0 mm 0.00 in0.0 mm
12:50 AM 35.8°F2.1°C 29.6°F-1.3°C 78% 8.0 mph SSW12.9 kmh SSW 27.0 mph43.5 kmh 30.41 in1029.8 mb 0.00 in0.0 mm 0.00 in0.0 mm 0.00 in0.0 mm
12:49 AM 35.9°F2.2°C 29.7°F-1.3°C 78% 15.0 mph SW24.1 kmh SW 27.0 mph43.5 kmh 30.41 in1029.8 mb 0.00 in0.0 mm 0.00 in0.0 mm 0.00 in0.0 mm
12:48 AM 36.0°F2.2°C 29.5°F-1.4°C 77% 13.0 mph SW20.9 kmh SW 27.0 mph43.5 kmh 30.41 in1029.8 mb 0.00 in0.0 mm 0.00 in0.0 mm 0.00 in0.0 mm
12:47 AM 36.1°F2.3°C 29.6°F-1.3°C 77% 10.0 mph S16.1 kmh S 27.0 mph43.5 kmh 30.41 in1029.8 mb 0.00 in0.0 mm 0.00 in0.0 mm 0.00 in0.0 mm
12:46 AM 36.1°F2.3°C 29.6°F-1.3°C 77% 14.0 mph S22.5 kmh S 27.0 mph43.5 kmh 30.41 in1029.8 mb 0.00 in0.0 mm 0.00 in0.0 mm 0.00 in0.0 mm
12:45 AM 36.2°F2.3°C 29.4°F-1.4°C 76% 11.0 mph S17.7 kmh S 27.0 mph43.5 kmh 30.42 in1030.1 mb 0.00 in0.0 mm 0.00 in0.0 mm 0.00 in0.0 mm
12:44 AM 36.2°F2.3°C 29.4°F-1.4°C 76% 16.0 mph S25.7 kmh S 27.0 mph43.5 kmh 30.42 in1030.1 mb 0.00 in0.0 mm 0.00 in0.0 mm 0.00 in0.0 mm
12:43 AM 36.1°F2.3°C 29.6°F-1.3°C 77% 25.0 mph S40.2 kmh S 27.0 mph43.5 kmh 30.41 in1029.8 mb 0.00 in0.0 mm 0.00 in0.0 mm 0.00 in0.0 mm
12:42 AM 36.1°F2.3°C 29.6°F-1.3°C 77% 13.0 mph S20.9 kmh S 23.0 mph37.0 kmh 30.41 in1029.8 mb 0.00 in0.0 mm 0.00 in0.0 mm 0.00 in0.0 mm
12:41 AM 36.1°F2.3°C 29.6°F-1.3°C 77% 15.0 mph S24.1 kmh S 22.0 mph35.4 kmh 30.42 in1030.1 mb 0.00 in0.0 mm 0.00 in0.0 mm 0.00 in0.0 mm
12:40 AM 36.1°F2.3°C 29.6°F-1.3°C 77% 11.0 mph SSW17.7 kmh SSW 22.0 mph35.4 kmh 30.42 in1030.1 mb 0.00 in0.0 mm 0.00 in0.0 mm 0.00 in0.0 mm
12:39 AM 36.1°F2.3°C 29.6°F-1.3°C 77% 16.0 mph S25.7 kmh S 22.0 mph35.4 kmh 30.42 in1030.1 mb 0.00 in0.0 mm 0.00 in0.0 mm 0.00 in0.0 mm
12:38 AM 36.2°F2.3°C 29.7°F-1.3°C 77% 5.0 mph SW8.0 kmh SW 22.0 mph35.4 kmh 30.42 in1030.1 mb 0.00 in0.0 mm 0.00 in0.0 mm 0.00 in0.0 mm
12:37 AM 36.2°F2.3°C 29.7°F-1.3°C 77% 3.0 mph SSW4.8 kmh SSW 22.0 mph35.4 kmh 30.42 in1030.1 mb 0.00 in0.0 mm 0.00 in0.0 mm 0.00 in0.0 mm
12:36 AM 36.2°F2.3°C 29.7°F-1.3°C 77% 7.0 mph SSW11.3 kmh SSW 22.0 mph35.4 kmh 30.42 in1030.1 mb 0.00 in0.0 mm 0.00 in0.0 mm 0.00 in0.0 mm
12:35 AM 36.3°F2.4°C 29.8°F-1.2°C 77% 10.0 mph SW16.1 kmh SW 22.0 mph35.4 kmh 30.42 in1030.1 mb 0.00 in0.0 mm 0.00 in0.0 mm 0.00 in0.0 mm
12:34 AM 36.3°F2.4°C 29.5°F-1.4°C 76% 10.0 mph SSW16.1 kmh SSW 22.0 mph35.4 kmh 30.41 in1029.8 mb 0.00 in0.0 mm 0.00 in0.0 mm 0.00 in0.0 mm
12:33 AM 36.3°F2.4°C 29.5°F-1.4°C 76% 17.0 mph SSE27.4 kmh SSE 22.0 mph35.4 kmh 30.41 in1029.8 mb 0.00 in0.0 mm 0.00 in0.0 mm 0.00 in0.0 mm
12:32 AM 36.2°F2.3°C 29.7°F-1.3°C 77% 11.0 mph SE17.7 kmh SE 22.0 mph35.4 kmh 30.41 in1029.8 mb 0.00 in0.0 mm 0.00 in0.0 mm 0.00 in0.0 mm
12:31 AM 36.3°F2.4°C 29.8°F-1.2°C 77% 19.0 mph S30.6 kmh S 22.0 mph35.4 kmh 30.40 in1029.5 mb 0.00 in0.0 mm 0.00 in0.0 mm 0.00 in0.0 mm
12:30 AM 36.3°F2.4°C 29.5°F-1.4°C 76% 9.0 mph SSE14.5 kmh SSE 22.0 mph35.4 kmh 30.40 in1029.5 mb 0.00 in0.0 mm 0.00 in0.0 mm 0.00 in0.0 mm
12:29 AM 36.3°F2.4°C 29.5°F-1.4°C 76% 11.0 mph S17.7 kmh S 22.0 mph35.4 kmh 30.41 in1029.8 mb 0.00 in0.0 mm 0.00 in0.0 mm 0.00 in0.0 mm
12:28 AM 36.2°F2.3°C 29.4°F-1.4°C 76% 6.0 mph SW9.7 kmh SW 22.0 mph35.4 kmh 30.41 in1029.8 mb 0.00 in0.0 mm 0.00 in0.0 mm 0.00 in0.0 mm
12:27 AM 36.2°F2.3°C 29.7°F-1.3°C 77% 10.0 mph ESE16.1 kmh ESE 22.0 mph35.4 kmh 30.40 in1029.5 mb 0.00 in0.0 mm 0.00 in0.0 mm 0.00 in0.0 mm
12:26 AM 36.2°F2.3°C 29.7°F-1.3°C 77% 7.0 mph SSW11.3 kmh SSW 22.0 mph35.4 kmh 30.40 in1029.5 mb 0.00 in0.0 mm 0.00 in0.0 mm 0.00 in0.0 mm
12:25 AM 36.1°F2.3°C 29.6°F-1.3°C 77% 2.0 mph SSE3.2 kmh SSE 22.0 mph35.4 kmh 30.40 in1029.5 mb 0.00 in0.0 mm 0.00 in0.0 mm 0.00 in0.0 mm
12:24 AM 36.1°F2.3°C 29.6°F-1.3°C 77% 11.0 mph SW17.7 kmh SW 22.0 mph35.4 kmh 30.40 in1029.5 mb 0.00 in0.0 mm 0.00 in0.0 mm 0.00 in0.0 mm
12:23 AM 36.0°F2.2°C 29.5°F-1.4°C 77% 8.0 mph SSE12.9 kmh SSE 22.0 mph35.4 kmh 30.40 in1029.5 mb 0.00 in0.0 mm 0.00 in0.0 mm 0.00 in0.0 mm
12:22 AM 36.0°F2.2°C 29.5°F-1.4°C 77% 7.0 mph S11.3 kmh S 22.0 mph35.4 kmh 30.40 in1029.5 mb 0.00 in0.0 mm 0.00 in0.0 mm 0.00 in0.0 mm
12:21 AM 36.0°F2.2°C 29.8°F-1.2°C 78% 9.0 mph S14.5 kmh S 22.0 mph35.4 kmh 30.40 in1029.5 mb 0.00 in0.0 mm 0.00 in0.0 mm 0.00 in0.0 mm
12:20 AM 36.0°F2.2°C 29.8°F-1.2°C 78% 13.0 mph S20.9 kmh S 22.0 mph35.4 kmh 30.40 in1029.5 mb 0.00 in0.0 mm 0.00 in0.0 mm 0.00 in0.0 mm
12:19 AM 36.0°F2.2°C 29.8°F-1.2°C 78% 9.0 mph E14.5 kmh E 21.0 mph33.8 kmh 30.40 in1029.5 mb 0.00 in0.0 mm 0.00 in0.0 mm 0.00 in0.0 mm
12:18 AM 35.9°F2.2°C 29.7°F-1.3°C 78% 9.0 mph S14.5 kmh S 21.0 mph33.8 kmh 30.40 in1029.5 mb 0.00 in0.0 mm 0.00 in0.0 mm 0.00 in0.0 mm
12:17 AM 35.9°F2.2°C 29.7°F-1.3°C 78% 10.0 mph S16.1 kmh S 18.0 mph29.0 kmh 30.40 in1029.5 mb 0.00 in0.0 mm 0.00 in0.0 mm 0.00 in0.0 mm
12:16 AM 36.0°F2.2°C 29.8°F-1.2°C 78% 10.0 mph S16.1 kmh S 18.0 mph29.0 kmh 30.40 in1029.5 mb 0.00 in0.0 mm 0.00 in0.0 mm 0.00 in0.0 mm
12:15 AM 36.0°F2.2°C 29.8°F-1.2°C 78% 9.0 mph S14.5 kmh S 18.0 mph29.0 kmh 30.39 in1029.1 mb 0.00 in0.0 mm 0.00 in0.0 mm 0.00 in0.0 mm
12:14 AM 36.0°F2.2°C 29.8°F-1.2°C 78% 7.0 mph S11.3 kmh S 18.0 mph29.0 kmh 30.40 in1029.5 mb 0.00 in0.0 mm 0.00 in0.0 mm 0.00 in0.0 mm
12:13 AM 36.1°F2.3°C 29.6°F-1.3°C 77% 9.0 mph E14.5 kmh E 18.0 mph29.0 kmh 30.40 in1029.5 mb 0.00 in0.0 mm 0.00 in0.0 mm 0.00 in0.0 mm
12:12 AM 36.0°F2.2°C 29.8°F-1.2°C 78% 11.0 mph S17.7 kmh S 18.0 mph29.0 kmh 30.39 in1029.1 mb 0.00 in0.0 mm 0.00 in0.0 mm 0.00 in0.0 mm
12:11 AM 36.0°F2.2°C 29.8°F-1.2°C 78% 6.0 mph SE9.7 kmh SE 18.0 mph29.0 kmh 30.39 in1029.1 mb 0.00 in0.0 mm 0.00 in0.0 mm 0.00 in0.0 mm
12:10 AM 36.0°F2.2°C 29.8°F-1.2°C 78% 10.0 mph SSE16.1 kmh SSE 18.0 mph29.0 kmh 30.40 in1029.5 mb 0.00 in0.0 mm 0.00 in0.0 mm 0.00 in0.0 mm
12:09 AM 36.0°F2.2°C 29.8°F-1.2°C 78% 4.0 mph SE6.4 kmh SE 18.0 mph29.0 kmh 30.39 in1029.1 mb 0.00 in0.0 mm 0.00 in0.0 mm 0.00 in0.0 mm
12:08 AM 35.9°F2.2°C 29.7°F-1.3°C 78% 8.0 mph S12.9 kmh S 18.0 mph29.0 kmh 30.39 in1029.1 mb 0.00 in0.0 mm 0.00 in0.0 mm 0.00 in0.0 mm
12:07 AM 35.9°F2.2°C 29.4°F-1.4°C 77% 9.0 mph SSE14.5 kmh SSE 18.0 mph29.0 kmh 30.40 in1029.5 mb 0.00 in0.0 mm 0.00 in0.0 mm 0.00 in0.0 mm
12:06 AM 35.9°F2.2°C 29.7°F-1.3°C 78% 4.0 mph SSW6.4 kmh SSW 18.0 mph29.0 kmh 30.40 in1029.5 mb 0.00 in0.0 mm 0.00 in0.0 mm 0.00 in0.0 mm
12:05 AM 36.0°F2.2°C 29.8°F-1.2°C 78% 18.0 mph S29.0 kmh S 18.0 mph29.0 kmh 30.40 in1029.5 mb 0.00 in0.0 mm 0.00 in0.0 mm 0.00 in0.0 mm
12:04 AM 36.0°F2.2°C 29.8°F-1.2°C 78% 8.0 mph SE12.9 kmh SE 18.0 mph29.0 kmh 30.39 in1029.1 mb 0.00 in0.0 mm 0.00 in0.0 mm 0.00 in0.0 mm
12:03 AM 36.0°F2.2°C 29.8°F-1.2°C 78% 7.0 mph SSE11.3 kmh SSE 18.0 mph29.0 kmh 30.40 in1029.5 mb 0.00 in0.0 mm 0.00 in0.0 mm 0.00 in0.0 mm
12:02 AM 36.0°F2.2°C 29.8°F-1.2°C 78% 10.0 mph S16.1 kmh S 18.0 mph29.0 kmh 30.40 in1029.5 mb 0.00 in0.0 mm 0.00 in0.0 mm 0.00 in0.0 mm
12:01 AM 36.1°F2.3°C 29.9°F-1.2°C 78% 11.0 mph S17.7 kmh S 18.0 mph29.0 kmh 30.39 in1029.1 mb 0.00 in0.0 mm 0.00 in0.0 mm 0.00 in0.0 mm
12:00 AM 36.1°F2.3°C 29.6°F-1.3°C 77% 8.0 mph SSE12.9 kmh SSE 18.0 mph29.0 kmh 30.39 in1029.1 mb 0.00 in0.0 mm 0.00 in0.0 mm 0.00 in0.0 mm